<?xml version="1.0" encoding="UTF-8" standalone="no" ?>
<gpx xmlns="http://www.topografix.com/GPX/1/1" xmlns:xsi="http://www.w3.org/2001/XMLSchema-instance" xsi:schemaLocation="http://www.topografix.com/GPX/1/1 http://www.topografix.com/GPX/1/1/gpx.xsd" version="1.1" creator="VisuGPX - https://www.visugpx.com">
  <metadata>
    <name>Circuit n° 6</name>
    <desc><![CDATA[Site FFC Capcir Haut Conflent ]]></desc>
  </metadata>
  <wpt lat="42.61444" lon="2.10309">
    <ele>1502.9</ele>
    <name><![CDATA[Start]]></name>
    <desc><![CDATA[2011-06-05 07:04:03]]></desc>
  </wpt>
  <wpt lat="42.61514" lon="2.10046">
    <ele>1525.9</ele>
    <name><![CDATA[Lap 1]]></name>
    <desc><![CDATA[22.01km, 99:29, 13.3kph]]></desc>
  </wpt>
  <trk>
    <name><![CDATA[2011-06-05-07-04-03]]></name>
    <desc><![CDATA[99:29 - 22.0km]]></desc>
    <trkseg>
      <trkpt lat="42.61444" lon="2.10309">
        <ele>1506.203</ele>
        <time>2011-06-05T07:04:04Z</time>
      </trkpt>
      <trkpt lat="42.61438" lon="2.10301">
        <ele>1506.162</ele>
        <time>2011-06-05T07:04:09Z</time>
      </trkpt>
      <trkpt lat="42.6143" lon="2.10286">
        <ele>1506.461</ele>
        <time>2011-06-05T07:04:16Z</time>
      </trkpt>
      <trkpt lat="42.61422" lon="2.10275">
        <ele>1507.227</ele>
        <time>2011-06-05T07:04:22Z</time>
      </trkpt>
      <trkpt lat="42.61413" lon="2.10269">
        <ele>1507.372</ele>
        <time>2011-06-05T07:04:28Z</time>
      </trkpt>
      <trkpt lat="42.61403" lon="2.10266">
        <ele>1507.719</ele>
        <time>2011-06-05T07:04:34Z</time>
      </trkpt>
      <trkpt lat="42.61393" lon="2.10263">
        <ele>1507.788</ele>
        <time>2011-06-05T07:04:41Z</time>
      </trkpt>
      <trkpt lat="42.6139" lon="2.10263">
        <ele>1507.767</ele>
        <time>2011-06-05T07:04:42Z</time>
      </trkpt>
      <trkpt lat="42.61383" lon="2.10246">
        <ele>1507.998</ele>
        <time>2011-06-05T07:04:48Z</time>
      </trkpt>
      <trkpt lat="42.61376" lon="2.10218">
        <ele>1508.206</ele>
        <time>2011-06-05T07:04:55Z</time>
      </trkpt>
      <trkpt lat="42.61373" lon="2.10194">
        <ele>1509.073</ele>
        <time>2011-06-05T07:05:01Z</time>
      </trkpt>
      <trkpt lat="42.61362" lon="2.10171">
        <ele>1509.814</ele>
        <time>2011-06-05T07:05:08Z</time>
      </trkpt>
      <trkpt lat="42.61359" lon="2.10147">
        <ele>1511.048</ele>
        <time>2011-06-05T07:05:15Z</time>
      </trkpt>
      <trkpt lat="42.61361" lon="2.10128">
        <ele>1512.071</ele>
        <time>2011-06-05T07:05:21Z</time>
      </trkpt>
      <trkpt lat="42.61361" lon="2.10096">
        <ele>1514.504</ele>
        <time>2011-06-05T07:05:31Z</time>
      </trkpt>
      <trkpt lat="42.61365" lon="2.10072">
        <ele>1516.052</ele>
        <time>2011-06-05T07:05:39Z</time>
      </trkpt>
      <trkpt lat="42.6137" lon="2.10044">
        <ele>1517.904</ele>
        <time>2011-06-05T07:05:48Z</time>
      </trkpt>
      <trkpt lat="42.61373" lon="2.1002">
        <ele>1518.651</ele>
        <time>2011-06-05T07:05:55Z</time>
      </trkpt>
      <trkpt lat="42.61376" lon="2.09992">
        <ele>1518.631</ele>
        <time>2011-06-05T07:06:02Z</time>
      </trkpt>
      <trkpt lat="42.61376" lon="2.09967">
        <ele>1520.203</ele>
        <time>2011-06-05T07:06:10Z</time>
      </trkpt>
      <trkpt lat="42.61371" lon="2.09948">
        <ele>1521.111</ele>
        <time>2011-06-05T07:06:16Z</time>
      </trkpt>
      <trkpt lat="42.61356" lon="2.09947">
        <ele>1521.978</ele>
        <time>2011-06-05T07:06:22Z</time>
      </trkpt>
      <trkpt lat="42.61344" lon="2.09958">
        <ele>1522.03</ele>
        <time>2011-06-05T07:06:27Z</time>
      </trkpt>
      <trkpt lat="42.6133" lon="2.09983">
        <ele>1522.041</ele>
        <time>2011-06-05T07:06:35Z</time>
      </trkpt>
      <trkpt lat="42.6132" lon="2.10012">
        <ele>1522.222</ele>
        <time>2011-06-05T07:06:43Z</time>
      </trkpt>
      <trkpt lat="42.61315" lon="2.1004">
        <ele>1523.799</ele>
        <time>2011-06-05T07:06:52Z</time>
      </trkpt>
      <trkpt lat="42.61311" lon="2.1006">
        <ele>1525.139</ele>
        <time>2011-06-05T07:06:59Z</time>
      </trkpt>
      <trkpt lat="42.61308" lon="2.10065">
        <ele>1525.409</ele>
        <time>2011-06-05T07:07:01Z</time>
      </trkpt>
      <trkpt lat="42.61303" lon="2.10075">
        <ele>1526.043</ele>
        <time>2011-06-05T07:07:05Z</time>
      </trkpt>
      <trkpt lat="42.613" lon="2.10081">
        <ele>1526.101</ele>
        <time>2011-06-05T07:07:07Z</time>
      </trkpt>
      <trkpt lat="42.61278" lon="2.10105">
        <ele>1526.407</ele>
        <time>2011-06-05T07:07:15Z</time>
      </trkpt>
      <trkpt lat="42.61262" lon="2.10126">
        <ele>1526.403</ele>
        <time>2011-06-05T07:07:21Z</time>
      </trkpt>
      <trkpt lat="42.61248" lon="2.10149">
        <ele>1527.609</ele>
        <time>2011-06-05T07:07:28Z</time>
      </trkpt>
      <trkpt lat="42.61229" lon="2.10182">
        <ele>1528.717</ele>
        <time>2011-06-05T07:07:38Z</time>
      </trkpt>
      <trkpt lat="42.61218" lon="2.1021">
        <ele>1529.56</ele>
        <time>2011-06-05T07:07:46Z</time>
      </trkpt>
      <trkpt lat="42.61208" lon="2.10237">
        <ele>1530.97</ele>
        <time>2011-06-05T07:07:54Z</time>
      </trkpt>
      <trkpt lat="42.61194" lon="2.10255">
        <ele>1532.012</ele>
        <time>2011-06-05T07:08:01Z</time>
      </trkpt>
      <trkpt lat="42.61167" lon="2.10276">
        <ele>1533.954</ele>
        <time>2011-06-05T07:08:12Z</time>
      </trkpt>
      <trkpt lat="42.61139" lon="2.10299">
        <ele>1535.375</ele>
        <time>2011-06-05T07:08:24Z</time>
      </trkpt>
      <trkpt lat="42.6112" lon="2.10314">
        <ele>1535.441</ele>
        <time>2011-06-05T07:08:31Z</time>
      </trkpt>
      <trkpt lat="42.61104" lon="2.1032">
        <ele>1535.343</ele>
        <time>2011-06-05T07:08:36Z</time>
      </trkpt>
      <trkpt lat="42.61073" lon="2.10326">
        <ele>1535.775</ele>
        <time>2011-06-05T07:08:45Z</time>
      </trkpt>
      <trkpt lat="42.6105" lon="2.1033">
        <ele>1536.465</ele>
        <time>2011-06-05T07:08:53Z</time>
      </trkpt>
      <trkpt lat="42.6105" lon="2.10331">
        <ele>1536.843</ele>
        <time>2011-06-05T07:10:25Z</time>
      </trkpt>
      <trkpt lat="42.6104" lon="2.10333">
        <ele>1536.859</ele>
        <time>2011-06-05T07:10:31Z</time>
      </trkpt>
      <trkpt lat="42.61022" lon="2.10337">
        <ele>1537.202</ele>
        <time>2011-06-05T07:10:38Z</time>
      </trkpt>
      <trkpt lat="42.60997" lon="2.10343">
        <ele>1537.814</ele>
        <time>2011-06-05T07:10:47Z</time>
      </trkpt>
      <trkpt lat="42.60966" lon="2.1035">
        <ele>1537.818</ele>
        <time>2011-06-05T07:10:58Z</time>
      </trkpt>
      <trkpt lat="42.60943" lon="2.10356">
        <ele>1538.114</ele>
        <time>2011-06-05T07:11:06Z</time>
      </trkpt>
      <trkpt lat="42.60911" lon="2.10362">
        <ele>1538.989</ele>
        <time>2011-06-05T07:11:17Z</time>
      </trkpt>
      <trkpt lat="42.60884" lon="2.10366">
        <ele>1539.474</ele>
        <time>2011-06-05T07:11:26Z</time>
      </trkpt>
      <trkpt lat="42.60857" lon="2.10362">
        <ele>1539.895</ele>
        <time>2011-06-05T07:11:35Z</time>
      </trkpt>
      <trkpt lat="42.60831" lon="2.10355">
        <ele>1540.551</ele>
        <time>2011-06-05T07:11:44Z</time>
      </trkpt>
      <trkpt lat="42.60802" lon="2.10348">
        <ele>1541.215</ele>
        <time>2011-06-05T07:11:54Z</time>
      </trkpt>
      <trkpt lat="42.60774" lon="2.10339">
        <ele>1542.517</ele>
        <time>2011-06-05T07:12:04Z</time>
      </trkpt>
      <trkpt lat="42.6075" lon="2.10334">
        <ele>1543.491</ele>
        <time>2011-06-05T07:12:12Z</time>
      </trkpt>
      <trkpt lat="42.60729" lon="2.10329">
        <ele>1543.852</ele>
        <time>2011-06-05T07:12:19Z</time>
      </trkpt>
      <trkpt lat="42.60713" lon="2.10331">
        <ele>1544.344</ele>
        <time>2011-06-05T07:12:25Z</time>
      </trkpt>
      <trkpt lat="42.60697" lon="2.10335">
        <ele>1543.862</ele>
        <time>2011-06-05T07:12:31Z</time>
      </trkpt>
      <trkpt lat="42.60689" lon="2.10337">
        <ele>1543.53</ele>
        <time>2011-06-05T07:12:35Z</time>
      </trkpt>
      <trkpt lat="42.60675" lon="2.10342">
        <ele>1543.431</ele>
        <time>2011-06-05T07:12:41Z</time>
      </trkpt>
      <trkpt lat="42.60659" lon="2.10345">
        <ele>1543.313</ele>
        <time>2011-06-05T07:12:47Z</time>
      </trkpt>
      <trkpt lat="42.6063" lon="2.1036">
        <ele>1542.988</ele>
        <time>2011-06-05T07:12:57Z</time>
      </trkpt>
      <trkpt lat="42.60618" lon="2.10369">
        <ele>1542.85</ele>
        <time>2011-06-05T07:13:02Z</time>
      </trkpt>
      <trkpt lat="42.60588" lon="2.10393">
        <ele>1542.999</ele>
        <time>2011-06-05T07:13:13Z</time>
      </trkpt>
      <trkpt lat="42.60575" lon="2.10407">
        <ele>1543.049</ele>
        <time>2011-06-05T07:13:19Z</time>
      </trkpt>
      <trkpt lat="42.60556" lon="2.10416">
        <ele>1543.407</ele>
        <time>2011-06-05T07:13:26Z</time>
      </trkpt>
      <trkpt lat="42.60544" lon="2.10413">
        <ele>1543.71</ele>
        <time>2011-06-05T07:13:31Z</time>
      </trkpt>
      <trkpt lat="42.60527" lon="2.10409">
        <ele>1543.778</ele>
        <time>2011-06-05T07:13:37Z</time>
      </trkpt>
      <trkpt lat="42.605" lon="2.104">
        <ele>1544.555</ele>
        <time>2011-06-05T07:13:47Z</time>
      </trkpt>
      <trkpt lat="42.60483" lon="2.10391">
        <ele>1545.308</ele>
        <time>2011-06-05T07:13:54Z</time>
      </trkpt>
      <trkpt lat="42.60469" lon="2.10388">
        <ele>1545.788</ele>
        <time>2011-06-05T07:13:59Z</time>
      </trkpt>
      <trkpt lat="42.60452" lon="2.10383">
        <ele>1546.262</ele>
        <time>2011-06-05T07:14:06Z</time>
      </trkpt>
      <trkpt lat="42.60431" lon="2.1038">
        <ele>1546.836</ele>
        <time>2011-06-05T07:14:14Z</time>
      </trkpt>
      <trkpt lat="42.60403" lon="2.10383">
        <ele>1547.302</ele>
        <time>2011-06-05T07:14:24Z</time>
      </trkpt>
      <trkpt lat="42.60379" lon="2.10384">
        <ele>1548.379</ele>
        <time>2011-06-05T07:14:32Z</time>
      </trkpt>
      <trkpt lat="42.60369" lon="2.10396">
        <ele>1549.136</ele>
        <time>2011-06-05T07:14:37Z</time>
      </trkpt>
      <trkpt lat="42.60361" lon="2.10399">
        <ele>1549.785</ele>
        <time>2011-06-05T07:14:40Z</time>
      </trkpt>
      <trkpt lat="42.60342" lon="2.10399">
        <ele>1551.176</ele>
        <time>2011-06-05T07:14:48Z</time>
      </trkpt>
      <trkpt lat="42.60323" lon="2.104">
        <ele>1552.276</ele>
        <time>2011-06-05T07:14:55Z</time>
      </trkpt>
      <trkpt lat="42.60308" lon="2.10398">
        <ele>1553.116</ele>
        <time>2011-06-05T07:15:01Z</time>
      </trkpt>
      <trkpt lat="42.60292" lon="2.10394">
        <ele>1553.811</ele>
        <time>2011-06-05T07:15:07Z</time>
      </trkpt>
      <trkpt lat="42.60264" lon="2.10393">
        <ele>1555.103</ele>
        <time>2011-06-05T07:15:17Z</time>
      </trkpt>
      <trkpt lat="42.60248" lon="2.10391">
        <ele>1555.533</ele>
        <time>2011-06-05T07:15:23Z</time>
      </trkpt>
      <trkpt lat="42.6023" lon="2.10385">
        <ele>1556.39</ele>
        <time>2011-06-05T07:15:30Z</time>
      </trkpt>
      <trkpt lat="42.60214" lon="2.10379">
        <ele>1556.863</ele>
        <time>2011-06-05T07:15:36Z</time>
      </trkpt>
      <trkpt lat="42.602" lon="2.10372">
        <ele>1557.159</ele>
        <time>2011-06-05T07:15:41Z</time>
      </trkpt>
      <trkpt lat="42.60181" lon="2.10364">
        <ele>1557.808</ele>
        <time>2011-06-05T07:15:48Z</time>
      </trkpt>
      <trkpt lat="42.60171" lon="2.10361">
        <ele>1557.965</ele>
        <time>2011-06-05T07:15:53Z</time>
      </trkpt>
      <trkpt lat="42.60154" lon="2.10355">
        <ele>1558.335</ele>
        <time>2011-06-05T07:15:59Z</time>
      </trkpt>
      <trkpt lat="42.6014" lon="2.1035">
        <ele>1558.57</ele>
        <time>2011-06-05T07:16:04Z</time>
      </trkpt>
      <trkpt lat="42.60117" lon="2.10342">
        <ele>1559.235</ele>
        <time>2011-06-05T07:16:12Z</time>
      </trkpt>
      <trkpt lat="42.60083" lon="2.1033">
        <ele>1559.844</ele>
        <time>2011-06-05T07:16:24Z</time>
      </trkpt>
      <trkpt lat="42.60058" lon="2.10322">
        <ele>1559.787</ele>
        <time>2011-06-05T07:16:33Z</time>
      </trkpt>
      <trkpt lat="42.60041" lon="2.10315">
        <ele>1559.998</ele>
        <time>2011-06-05T07:16:40Z</time>
      </trkpt>
      <trkpt lat="42.60023" lon="2.10309">
        <ele>1560.266</ele>
        <time>2011-06-05T07:16:47Z</time>
      </trkpt>
      <trkpt lat="42.6002" lon="2.10316">
        <ele>1560.683</ele>
        <time>2011-06-05T07:16:51Z</time>
      </trkpt>
      <trkpt lat="42.60019" lon="2.10322">
        <ele>1560.594</ele>
        <time>2011-06-05T07:16:53Z</time>
      </trkpt>
      <trkpt lat="42.60022" lon="2.10323">
        <ele>1560.238</ele>
        <time>2011-06-05T07:16:57Z</time>
      </trkpt>
      <trkpt lat="42.60022" lon="2.10321">
        <ele>1560.22</ele>
        <time>2011-06-05T07:16:58Z</time>
      </trkpt>
      <trkpt lat="42.60019" lon="2.10314">
        <ele>1560.288</ele>
        <time>2011-06-05T07:17:01Z</time>
      </trkpt>
      <trkpt lat="42.60006" lon="2.10303">
        <ele>1561.154</ele>
        <time>2011-06-05T07:17:07Z</time>
      </trkpt>
      <trkpt lat="42.60001" lon="2.103">
        <ele>1561.12</ele>
        <time>2011-06-05T07:17:09Z</time>
      </trkpt>
      <trkpt lat="42.5997" lon="2.10287">
        <ele>1561.827</ele>
        <time>2011-06-05T07:17:20Z</time>
      </trkpt>
      <trkpt lat="42.59952" lon="2.10279">
        <ele>1562.178</ele>
        <time>2011-06-05T07:17:27Z</time>
      </trkpt>
      <trkpt lat="42.59936" lon="2.10275">
        <ele>1562.209</ele>
        <time>2011-06-05T07:17:33Z</time>
      </trkpt>
      <trkpt lat="42.59921" lon="2.10269">
        <ele>1562.67</ele>
        <time>2011-06-05T07:17:39Z</time>
      </trkpt>
      <trkpt lat="42.59915" lon="2.10268">
        <ele>1562.787</ele>
        <time>2011-06-05T07:17:41Z</time>
      </trkpt>
      <trkpt lat="42.59912" lon="2.10255">
        <ele>1562.793</ele>
        <time>2011-06-05T07:17:45Z</time>
      </trkpt>
      <trkpt lat="42.59912" lon="2.10243">
        <ele>1563.409</ele>
        <time>2011-06-05T07:17:49Z</time>
      </trkpt>
      <trkpt lat="42.59914" lon="2.10241">
        <ele>1563.499</ele>
        <time>2011-06-05T07:17:50Z</time>
      </trkpt>
      <trkpt lat="42.59931" lon="2.10224">
        <ele>1563.953</ele>
        <time>2011-06-05T07:17:58Z</time>
      </trkpt>
      <trkpt lat="42.59949" lon="2.10204">
        <ele>1564.604</ele>
        <time>2011-06-05T07:18:06Z</time>
      </trkpt>
      <trkpt lat="42.59962" lon="2.1019">
        <ele>1564.709</ele>
        <time>2011-06-05T07:18:11Z</time>
      </trkpt>
      <trkpt lat="42.59977" lon="2.10178">
        <ele>1565.26</ele>
        <time>2011-06-05T07:18:17Z</time>
      </trkpt>
      <trkpt lat="42.59989" lon="2.10167">
        <ele>1565.802</ele>
        <time>2011-06-05T07:18:22Z</time>
      </trkpt>
      <trkpt lat="42.6001" lon="2.10159">
        <ele>1565.554</ele>
        <time>2011-06-05T07:18:29Z</time>
      </trkpt>
      <trkpt lat="42.60035" lon="2.10154">
        <ele>1565.805</ele>
        <time>2011-06-05T07:18:37Z</time>
      </trkpt>
      <trkpt lat="42.60043" lon="2.10147">
        <ele>1565.648</ele>
        <time>2011-06-05T07:18:40Z</time>
      </trkpt>
      <trkpt lat="42.60048" lon="2.10126">
        <ele>1565.947</ele>
        <time>2011-06-05T07:18:46Z</time>
      </trkpt>
      <trkpt lat="42.60052" lon="2.10114">
        <ele>1566.268</ele>
        <time>2011-06-05T07:18:49Z</time>
      </trkpt>
      <trkpt lat="42.60058" lon="2.10079">
        <ele>1567.008</ele>
        <time>2011-06-05T07:18:58Z</time>
      </trkpt>
      <trkpt lat="42.60062" lon="2.10052">
        <ele>1567.844</ele>
        <time>2011-06-05T07:19:05Z</time>
      </trkpt>
      <trkpt lat="42.60066" lon="2.10029">
        <ele>1568.851</ele>
        <time>2011-06-05T07:19:11Z</time>
      </trkpt>
      <trkpt lat="42.60071" lon="2.10008">
        <ele>1569.65</ele>
        <time>2011-06-05T07:19:17Z</time>
      </trkpt>
      <trkpt lat="42.6008" lon="2.09989">
        <ele>1570.224</ele>
        <time>2011-06-05T07:19:23Z</time>
      </trkpt>
      <trkpt lat="42.60082" lon="2.09987">
        <ele>1570.476</ele>
        <time>2011-06-05T07:19:24Z</time>
      </trkpt>
      <trkpt lat="42.60094" lon="2.09987">
        <ele>1571.356</ele>
        <time>2011-06-05T07:19:30Z</time>
      </trkpt>
      <trkpt lat="42.60106" lon="2.09987">
        <ele>1572.548</ele>
        <time>2011-06-05T07:19:36Z</time>
      </trkpt>
      <trkpt lat="42.60121" lon="2.09985">
        <ele>1573.353</ele>
        <time>2011-06-05T07:19:42Z</time>
      </trkpt>
      <trkpt lat="42.60135" lon="2.09989">
        <ele>1573.307</ele>
        <time>2011-06-05T07:19:48Z</time>
      </trkpt>
      <trkpt lat="42.60149" lon="2.09986">
        <ele>1573.743</ele>
        <time>2011-06-05T07:19:53Z</time>
      </trkpt>
      <trkpt lat="42.60165" lon="2.09982">
        <ele>1574.787</ele>
        <time>2011-06-05T07:19:59Z</time>
      </trkpt>
      <trkpt lat="42.60176" lon="2.09981">
        <ele>1574.811</ele>
        <time>2011-06-05T07:20:03Z</time>
      </trkpt>
      <trkpt lat="42.60198" lon="2.09975">
        <ele>1574.698</ele>
        <time>2011-06-05T07:20:10Z</time>
      </trkpt>
      <trkpt lat="42.60214" lon="2.09968">
        <ele>1574.437</ele>
        <time>2011-06-05T07:20:15Z</time>
      </trkpt>
      <trkpt lat="42.60234" lon="2.09949">
        <ele>1573.641</ele>
        <time>2011-06-05T07:20:22Z</time>
      </trkpt>
      <trkpt lat="42.60246" lon="2.09934">
        <ele>1572.912</ele>
        <time>2011-06-05T07:20:26Z</time>
      </trkpt>
      <trkpt lat="42.6026" lon="2.0993">
        <ele>1572.039</ele>
        <time>2011-06-05T07:20:30Z</time>
      </trkpt>
      <trkpt lat="42.60266" lon="2.09938">
        <ele>1571.477</ele>
        <time>2011-06-05T07:20:32Z</time>
      </trkpt>
      <trkpt lat="42.60276" lon="2.09954">
        <ele>1570.454</ele>
        <time>2011-06-05T07:20:35Z</time>
      </trkpt>
      <trkpt lat="42.60285" lon="2.09972">
        <ele>1569.144</ele>
        <time>2011-06-05T07:20:38Z</time>
      </trkpt>
      <trkpt lat="42.60293" lon="2.09997">
        <ele>1567.085</ele>
        <time>2011-06-05T07:20:42Z</time>
      </trkpt>
      <trkpt lat="42.60306" lon="2.10023">
        <ele>1565.278</ele>
        <time>2011-06-05T07:20:46Z</time>
      </trkpt>
      <trkpt lat="42.60323" lon="2.10029">
        <ele>1564.086</ele>
        <time>2011-06-05T07:20:49Z</time>
      </trkpt>
      <trkpt lat="42.60335" lon="2.10045">
        <ele>1563.645</ele>
        <time>2011-06-05T07:20:53Z</time>
      </trkpt>
      <trkpt lat="42.60342" lon="2.10067">
        <ele>1564.182</ele>
        <time>2011-06-05T07:20:58Z</time>
      </trkpt>
      <trkpt lat="42.60354" lon="2.10091">
        <ele>1565.088</ele>
        <time>2011-06-05T07:21:05Z</time>
      </trkpt>
      <trkpt lat="42.60365" lon="2.10098">
        <ele>1565.177</ele>
        <time>2011-06-05T07:21:09Z</time>
      </trkpt>
      <trkpt lat="42.60379" lon="2.10092">
        <ele>1566.258</ele>
        <time>2011-06-05T07:21:14Z</time>
      </trkpt>
      <trkpt lat="42.60392" lon="2.10083">
        <ele>1566.446</ele>
        <time>2011-06-05T07:21:19Z</time>
      </trkpt>
      <trkpt lat="42.60414" lon="2.10067">
        <ele>1566.572</ele>
        <time>2011-06-05T07:21:27Z</time>
      </trkpt>
      <trkpt lat="42.60438" lon="2.10048">
        <ele>1565.84</ele>
        <time>2011-06-05T07:21:33Z</time>
      </trkpt>
      <trkpt lat="42.60466" lon="2.10029">
        <ele>1564.561</ele>
        <time>2011-06-05T07:21:40Z</time>
      </trkpt>
      <trkpt lat="42.60479" lon="2.10016">
        <ele>1564.683</ele>
        <time>2011-06-05T07:21:45Z</time>
      </trkpt>
      <trkpt lat="42.60495" lon="2.10005">
        <ele>1565.825</ele>
        <time>2011-06-05T07:21:52Z</time>
      </trkpt>
      <trkpt lat="42.6051" lon="2.09996">
        <ele>1565.197</ele>
        <time>2011-06-05T07:21:58Z</time>
      </trkpt>
      <trkpt lat="42.60525" lon="2.09986">
        <ele>1565.021</ele>
        <time>2011-06-05T07:22:02Z</time>
      </trkpt>
      <trkpt lat="42.60537" lon="2.09979">
        <ele>1565.153</ele>
        <time>2011-06-05T07:22:06Z</time>
      </trkpt>
      <trkpt lat="42.60552" lon="2.09973">
        <ele>1565.787</ele>
        <time>2011-06-05T07:22:11Z</time>
      </trkpt>
      <trkpt lat="42.60563" lon="2.09964">
        <ele>1565.84</ele>
        <time>2011-06-05T07:22:15Z</time>
      </trkpt>
      <trkpt lat="42.60581" lon="2.09951">
        <ele>1565.752</ele>
        <time>2011-06-05T07:22:21Z</time>
      </trkpt>
      <trkpt lat="42.60594" lon="2.0995">
        <ele>1565.87</ele>
        <time>2011-06-05T07:22:28Z</time>
      </trkpt>
      <trkpt lat="42.60601" lon="2.0995">
        <ele>1566.052</ele>
        <time>2011-06-05T07:22:36Z</time>
      </trkpt>
      <trkpt lat="42.60611" lon="2.09953">
        <ele>1566.423</ele>
        <time>2011-06-05T07:22:41Z</time>
      </trkpt>
      <trkpt lat="42.60623" lon="2.09955">
        <ele>1566.916</ele>
        <time>2011-06-05T07:22:46Z</time>
      </trkpt>
      <trkpt lat="42.60638" lon="2.09952">
        <ele>1567.538</ele>
        <time>2011-06-05T07:22:51Z</time>
      </trkpt>
      <trkpt lat="42.60652" lon="2.09947">
        <ele>1568.167</ele>
        <time>2011-06-05T07:22:57Z</time>
      </trkpt>
      <trkpt lat="42.60663" lon="2.09943">
        <ele>1568.458</ele>
        <time>2011-06-05T07:23:02Z</time>
      </trkpt>
      <trkpt lat="42.6067" lon="2.09939">
        <ele>1568.972</ele>
        <time>2011-06-05T07:23:06Z</time>
      </trkpt>
      <trkpt lat="42.60689" lon="2.09932">
        <ele>1568.917</ele>
        <time>2011-06-05T07:23:11Z</time>
      </trkpt>
      <trkpt lat="42.60705" lon="2.09929">
        <ele>1568.945</ele>
        <time>2011-06-05T07:23:15Z</time>
      </trkpt>
      <trkpt lat="42.60723" lon="2.09925">
        <ele>1567.847</ele>
        <time>2011-06-05T07:23:20Z</time>
      </trkpt>
      <trkpt lat="42.60738" lon="2.09926">
        <ele>1567.42</ele>
        <time>2011-06-05T07:23:24Z</time>
      </trkpt>
      <trkpt lat="42.60763" lon="2.09919">
        <ele>1568.103</ele>
        <time>2011-06-05T07:23:31Z</time>
      </trkpt>
      <trkpt lat="42.60776" lon="2.09911">
        <ele>1568.526</ele>
        <time>2011-06-05T07:23:36Z</time>
      </trkpt>
      <trkpt lat="42.60785" lon="2.09906">
        <ele>1568.22</ele>
        <time>2011-06-05T07:23:40Z</time>
      </trkpt>
      <trkpt lat="42.60795" lon="2.09905">
        <ele>1568.069</ele>
        <time>2011-06-05T07:23:43Z</time>
      </trkpt>
      <trkpt lat="42.6081" lon="2.09901">
        <ele>1567.499</ele>
        <time>2011-06-05T07:23:46Z</time>
      </trkpt>
      <trkpt lat="42.60854" lon="2.09885">
        <ele>1565.993</ele>
        <time>2011-06-05T07:23:55Z</time>
      </trkpt>
      <trkpt lat="42.60874" lon="2.09885">
        <ele>1566.199</ele>
        <time>2011-06-05T07:24:01Z</time>
      </trkpt>
      <trkpt lat="42.60904" lon="2.09895">
        <ele>1565.982</ele>
        <time>2011-06-05T07:24:09Z</time>
      </trkpt>
      <trkpt lat="42.6092" lon="2.09896">
        <ele>1565.871</ele>
        <time>2011-06-05T07:24:14Z</time>
      </trkpt>
      <trkpt lat="42.60936" lon="2.099">
        <ele>1565.906</ele>
        <time>2011-06-05T07:24:18Z</time>
      </trkpt>
      <trkpt lat="42.60965" lon="2.09899">
        <ele>1565.648</ele>
        <time>2011-06-05T07:24:25Z</time>
      </trkpt>
      <trkpt lat="42.60982" lon="2.09896">
        <ele>1565.94</ele>
        <time>2011-06-05T07:24:30Z</time>
      </trkpt>
      <trkpt lat="42.60999" lon="2.09898">
        <ele>1566.402</ele>
        <time>2011-06-05T07:24:35Z</time>
      </trkpt>
      <trkpt lat="42.61018" lon="2.09907">
        <ele>1566.826</ele>
        <time>2011-06-05T07:24:41Z</time>
      </trkpt>
      <trkpt lat="42.61028" lon="2.09911">
        <ele>1566.898</ele>
        <time>2011-06-05T07:24:45Z</time>
      </trkpt>
      <trkpt lat="42.61042" lon="2.09917">
        <ele>1567.388</ele>
        <time>2011-06-05T07:24:50Z</time>
      </trkpt>
      <trkpt lat="42.61058" lon="2.09914">
        <ele>1568.736</ele>
        <time>2011-06-05T07:24:56Z</time>
      </trkpt>
      <trkpt lat="42.6107" lon="2.09901">
        <ele>1569.421</ele>
        <time>2011-06-05T07:25:02Z</time>
      </trkpt>
      <trkpt lat="42.61074" lon="2.0988">
        <ele>1568.915</ele>
        <time>2011-06-05T07:25:08Z</time>
      </trkpt>
      <trkpt lat="42.61073" lon="2.09862">
        <ele>1568.727</ele>
        <time>2011-06-05T07:25:13Z</time>
      </trkpt>
      <trkpt lat="42.61074" lon="2.09844">
        <ele>1568.596</ele>
        <time>2011-06-05T07:25:18Z</time>
      </trkpt>
      <trkpt lat="42.61073" lon="2.09841">
        <ele>1568.715</ele>
        <time>2011-06-05T07:25:19Z</time>
      </trkpt>
      <trkpt lat="42.61069" lon="2.09825">
        <ele>1569.265</ele>
        <time>2011-06-05T07:25:24Z</time>
      </trkpt>
      <trkpt lat="42.61071" lon="2.09815">
        <ele>1569.564</ele>
        <time>2011-06-05T07:25:27Z</time>
      </trkpt>
      <trkpt lat="42.61081" lon="2.09789">
        <ele>1570.148</ele>
        <time>2011-06-05T07:25:34Z</time>
      </trkpt>
      <trkpt lat="42.61083" lon="2.09762">
        <ele>1569.999</ele>
        <time>2011-06-05T07:25:40Z</time>
      </trkpt>
      <trkpt lat="42.61077" lon="2.09741">
        <ele>1569.311</ele>
        <time>2011-06-05T07:25:45Z</time>
      </trkpt>
      <trkpt lat="42.61065" lon="2.09718">
        <ele>1569.043</ele>
        <time>2011-06-05T07:25:51Z</time>
      </trkpt>
      <trkpt lat="42.61055" lon="2.09698">
        <ele>1569.46</ele>
        <time>2011-06-05T07:25:57Z</time>
      </trkpt>
      <trkpt lat="42.6105" lon="2.09678">
        <ele>1569.626</ele>
        <time>2011-06-05T07:26:02Z</time>
      </trkpt>
      <trkpt lat="42.61046" lon="2.09651">
        <ele>1569.702</ele>
        <time>2011-06-05T07:26:08Z</time>
      </trkpt>
      <trkpt lat="42.61046" lon="2.09647">
        <ele>1569.813</ele>
        <time>2011-06-05T07:26:09Z</time>
      </trkpt>
      <trkpt lat="42.61056" lon="2.09636">
        <ele>1569.996</ele>
        <time>2011-06-05T07:26:14Z</time>
      </trkpt>
      <trkpt lat="42.61061" lon="2.09633">
        <ele>1570.124</ele>
        <time>2011-06-05T07:26:16Z</time>
      </trkpt>
      <trkpt lat="42.61075" lon="2.09619">
        <ele>1570.475</ele>
        <time>2011-06-05T07:26:21Z</time>
      </trkpt>
      <trkpt lat="42.61084" lon="2.09599">
        <ele>1570.384</ele>
        <time>2011-06-05T07:26:26Z</time>
      </trkpt>
      <trkpt lat="42.61086" lon="2.09575">
        <ele>1570.615</ele>
        <time>2011-06-05T07:26:31Z</time>
      </trkpt>
      <trkpt lat="42.61085" lon="2.09547">
        <ele>1570.528</ele>
        <time>2011-06-05T07:26:37Z</time>
      </trkpt>
      <trkpt lat="42.61078" lon="2.09515">
        <ele>1571.321</ele>
        <time>2011-06-05T07:26:45Z</time>
      </trkpt>
      <trkpt lat="42.61072" lon="2.09493">
        <ele>1571.87</ele>
        <time>2011-06-05T07:26:50Z</time>
      </trkpt>
      <trkpt lat="42.61063" lon="2.0946">
        <ele>1572.89</ele>
        <time>2011-06-05T07:26:58Z</time>
      </trkpt>
      <trkpt lat="42.61052" lon="2.09433">
        <ele>1573.131</ele>
        <time>2011-06-05T07:27:05Z</time>
      </trkpt>
      <trkpt lat="42.61044" lon="2.09423">
        <ele>1572.909</ele>
        <time>2011-06-05T07:27:08Z</time>
      </trkpt>
      <trkpt lat="42.61038" lon="2.09416">
        <ele>1572.62</ele>
        <time>2011-06-05T07:27:10Z</time>
      </trkpt>
      <trkpt lat="42.61015" lon="2.09394">
        <ele>1571.573</ele>
        <time>2011-06-05T07:27:17Z</time>
      </trkpt>
      <trkpt lat="42.61002" lon="2.0937">
        <ele>1571.022</ele>
        <time>2011-06-05T07:27:23Z</time>
      </trkpt>
      <trkpt lat="42.60996" lon="2.09342">
        <ele>1571.094</ele>
        <time>2011-06-05T07:27:29Z</time>
      </trkpt>
      <trkpt lat="42.60987" lon="2.09312">
        <ele>1571.71</ele>
        <time>2011-06-05T07:27:36Z</time>
      </trkpt>
      <trkpt lat="42.60978" lon="2.09275">
        <ele>1571.36</ele>
        <time>2011-06-05T07:27:44Z</time>
      </trkpt>
      <trkpt lat="42.60971" lon="2.09243">
        <ele>1571.645</ele>
        <time>2011-06-05T07:27:51Z</time>
      </trkpt>
      <trkpt lat="42.60962" lon="2.09208">
        <ele>1572.252</ele>
        <time>2011-06-05T07:27:59Z</time>
      </trkpt>
      <trkpt lat="42.60952" lon="2.09177">
        <ele>1572.204</ele>
        <time>2011-06-05T07:28:06Z</time>
      </trkpt>
      <trkpt lat="42.60938" lon="2.09147">
        <ele>1572.534</ele>
        <time>2011-06-05T07:28:14Z</time>
      </trkpt>
      <trkpt lat="42.60936" lon="2.09145">
        <ele>1572.527</ele>
        <time>2011-06-05T07:28:15Z</time>
      </trkpt>
      <trkpt lat="42.60926" lon="2.09154">
        <ele>1573.184</ele>
        <time>2011-06-05T07:28:21Z</time>
      </trkpt>
      <trkpt lat="42.60924" lon="2.09156">
        <ele>1573.481</ele>
        <time>2011-06-05T07:28:22Z</time>
      </trkpt>
      <trkpt lat="42.60916" lon="2.09173">
        <ele>1574.763</ele>
        <time>2011-06-05T07:28:28Z</time>
      </trkpt>
      <trkpt lat="42.60908" lon="2.09188">
        <ele>1577.534</ele>
        <time>2011-06-05T07:28:34Z</time>
      </trkpt>
      <trkpt lat="42.60896" lon="2.092">
        <ele>1580.042</ele>
        <time>2011-06-05T07:28:41Z</time>
      </trkpt>
      <trkpt lat="42.6089" lon="2.09206">
        <ele>1580.785</ele>
        <time>2011-06-05T07:28:44Z</time>
      </trkpt>
      <trkpt lat="42.60877" lon="2.09217">
        <ele>1584.469</ele>
        <time>2011-06-05T07:28:52Z</time>
      </trkpt>
      <trkpt lat="42.60874" lon="2.09219">
        <ele>1585.169</ele>
        <time>2011-06-05T07:28:54Z</time>
      </trkpt>
      <trkpt lat="42.60866" lon="2.09226">
        <ele>1586.754</ele>
        <time>2011-06-05T07:28:59Z</time>
      </trkpt>
      <trkpt lat="42.60861" lon="2.09214">
        <ele>1587.156</ele>
        <time>2011-06-05T07:29:04Z</time>
      </trkpt>
      <trkpt lat="42.60853" lon="2.09193">
        <ele>1587.354</ele>
        <time>2011-06-05T07:29:10Z</time>
      </trkpt>
      <trkpt lat="42.60841" lon="2.09173">
        <ele>1587.252</ele>
        <time>2011-06-05T07:29:16Z</time>
      </trkpt>
      <trkpt lat="42.60825" lon="2.0915">
        <ele>1587.252</ele>
        <time>2011-06-05T07:29:23Z</time>
      </trkpt>
      <trkpt lat="42.6081" lon="2.09127">
        <ele>1587.594</ele>
        <time>2011-06-05T07:29:30Z</time>
      </trkpt>
      <trkpt lat="42.60789" lon="2.09098">
        <ele>1587.606</ele>
        <time>2011-06-05T07:29:39Z</time>
      </trkpt>
      <trkpt lat="42.60777" lon="2.09076">
        <ele>1587.503</ele>
        <time>2011-06-05T07:29:45Z</time>
      </trkpt>
      <trkpt lat="42.60762" lon="2.09044">
        <ele>1587.746</ele>
        <time>2011-06-05T07:29:53Z</time>
      </trkpt>
      <trkpt lat="42.60745" lon="2.09021">
        <ele>1587.731</ele>
        <time>2011-06-05T07:30:00Z</time>
      </trkpt>
      <trkpt lat="42.60729" lon="2.08991">
        <ele>1587.769</ele>
        <time>2011-06-05T07:30:08Z</time>
      </trkpt>
      <trkpt lat="42.60718" lon="2.08963">
        <ele>1588.019</ele>
        <time>2011-06-05T07:30:15Z</time>
      </trkpt>
      <trkpt lat="42.60706" lon="2.0894">
        <ele>1588.172</ele>
        <time>2011-06-05T07:30:21Z</time>
      </trkpt>
      <trkpt lat="42.60695" lon="2.08917">
        <ele>1588.163</ele>
        <time>2011-06-05T07:30:27Z</time>
      </trkpt>
      <trkpt lat="42.60684" lon="2.08891">
        <ele>1587.981</ele>
        <time>2011-06-05T07:30:33Z</time>
      </trkpt>
      <trkpt lat="42.60668" lon="2.08867">
        <ele>1588.51</ele>
        <time>2011-06-05T07:30:40Z</time>
      </trkpt>
      <trkpt lat="42.6066" lon="2.08842">
        <ele>1588.743</ele>
        <time>2011-06-05T07:30:46Z</time>
      </trkpt>
      <trkpt lat="42.60649" lon="2.08821">
        <ele>1589.021</ele>
        <time>2011-06-05T07:30:52Z</time>
      </trkpt>
      <trkpt lat="42.60629" lon="2.08803">
        <ele>1589.056</ele>
        <time>2011-06-05T07:30:59Z</time>
      </trkpt>
      <trkpt lat="42.60602" lon="2.0878">
        <ele>1589.572</ele>
        <time>2011-06-05T07:31:08Z</time>
      </trkpt>
      <trkpt lat="42.6057" lon="2.0876">
        <ele>1589.536</ele>
        <time>2011-06-05T07:31:18Z</time>
      </trkpt>
      <trkpt lat="42.60553" lon="2.08749">
        <ele>1589.38</ele>
        <time>2011-06-05T07:31:23Z</time>
      </trkpt>
      <trkpt lat="42.60533" lon="2.08737">
        <ele>1589.04</ele>
        <time>2011-06-05T07:31:29Z</time>
      </trkpt>
      <trkpt lat="42.60519" lon="2.08725">
        <ele>1589.216</ele>
        <time>2011-06-05T07:31:34Z</time>
      </trkpt>
      <trkpt lat="42.60514" lon="2.08705">
        <ele>1589.703</ele>
        <time>2011-06-05T07:31:39Z</time>
      </trkpt>
      <trkpt lat="42.60524" lon="2.08689">
        <ele>1589.475</ele>
        <time>2011-06-05T07:31:44Z</time>
      </trkpt>
      <trkpt lat="42.60527" lon="2.08686">
        <ele>1589.496</ele>
        <time>2011-06-05T07:31:45Z</time>
      </trkpt>
      <trkpt lat="42.60545" lon="2.08657">
        <ele>1589.809</ele>
        <time>2011-06-05T07:31:53Z</time>
      </trkpt>
      <trkpt lat="42.60558" lon="2.08629">
        <ele>1589.52</ele>
        <time>2011-06-05T07:32:00Z</time>
      </trkpt>
      <trkpt lat="42.60578" lon="2.08584">
        <ele>1589.846</ele>
        <time>2011-06-05T07:32:11Z</time>
      </trkpt>
      <trkpt lat="42.60586" lon="2.0855">
        <ele>1589.891</ele>
        <time>2011-06-05T07:32:19Z</time>
      </trkpt>
      <trkpt lat="42.60586" lon="2.08522">
        <ele>1589.816</ele>
        <time>2011-06-05T07:32:25Z</time>
      </trkpt>
      <trkpt lat="42.6058" lon="2.08495">
        <ele>1589.829</ele>
        <time>2011-06-05T07:32:31Z</time>
      </trkpt>
      <trkpt lat="42.60565" lon="2.0847">
        <ele>1590.435</ele>
        <time>2011-06-05T07:32:38Z</time>
      </trkpt>
      <trkpt lat="42.60549" lon="2.08466">
        <ele>1590.612</ele>
        <time>2011-06-05T07:32:43Z</time>
      </trkpt>
      <trkpt lat="42.60532" lon="2.0847">
        <ele>1591.062</ele>
        <time>2011-06-05T07:32:48Z</time>
      </trkpt>
      <trkpt lat="42.60519" lon="2.08466">
        <ele>1590.845</ele>
        <time>2011-06-05T07:32:52Z</time>
      </trkpt>
      <trkpt lat="42.60507" lon="2.08444">
        <ele>1591.228</ele>
        <time>2011-06-05T07:32:58Z</time>
      </trkpt>
      <trkpt lat="42.60503" lon="2.08417">
        <ele>1591.321</ele>
        <time>2011-06-05T07:33:04Z</time>
      </trkpt>
      <trkpt lat="42.60505" lon="2.08396">
        <ele>1591.626</ele>
        <time>2011-06-05T07:33:10Z</time>
      </trkpt>
      <trkpt lat="42.60494" lon="2.08391">
        <ele>1591.88</ele>
        <time>2011-06-05T07:33:15Z</time>
      </trkpt>
      <trkpt lat="42.60483" lon="2.08392">
        <ele>1593.266</ele>
        <time>2011-06-05T07:33:20Z</time>
      </trkpt>
      <trkpt lat="42.6047" lon="2.08407">
        <ele>1594.604</ele>
        <time>2011-06-05T07:33:27Z</time>
      </trkpt>
      <trkpt lat="42.60459" lon="2.08407">
        <ele>1595.447</ele>
        <time>2011-06-05T07:33:31Z</time>
      </trkpt>
      <trkpt lat="42.60444" lon="2.08404">
        <ele>1595.938</ele>
        <time>2011-06-05T07:33:37Z</time>
      </trkpt>
      <trkpt lat="42.60428" lon="2.08401">
        <ele>1596.268</ele>
        <time>2011-06-05T07:33:43Z</time>
      </trkpt>
      <trkpt lat="42.60413" lon="2.08397">
        <ele>1596.704</ele>
        <time>2011-06-05T07:33:49Z</time>
      </trkpt>
      <trkpt lat="42.60401" lon="2.08393">
        <ele>1596.874</ele>
        <time>2011-06-05T07:33:54Z</time>
      </trkpt>
      <trkpt lat="42.60382" lon="2.08399">
        <ele>1597.424</ele>
        <time>2011-06-05T07:34:01Z</time>
      </trkpt>
      <trkpt lat="42.60379" lon="2.084">
        <ele>1597.449</ele>
        <time>2011-06-05T07:34:02Z</time>
      </trkpt>
      <trkpt lat="42.60358" lon="2.08389">
        <ele>1598.238</ele>
        <time>2011-06-05T07:34:10Z</time>
      </trkpt>
      <trkpt lat="42.60344" lon="2.08381">
        <ele>1599.113</ele>
        <time>2011-06-05T07:34:16Z</time>
      </trkpt>
      <trkpt lat="42.60327" lon="2.08371">
        <ele>1599.987</ele>
        <time>2011-06-05T07:34:23Z</time>
      </trkpt>
      <trkpt lat="42.6031" lon="2.08361">
        <ele>1600.659</ele>
        <time>2011-06-05T07:34:30Z</time>
      </trkpt>
      <trkpt lat="42.60299" lon="2.08342">
        <ele>1600.397</ele>
        <time>2011-06-05T07:34:35Z</time>
      </trkpt>
      <trkpt lat="42.60286" lon="2.08323">
        <ele>1600.405</ele>
        <time>2011-06-05T07:34:41Z</time>
      </trkpt>
      <trkpt lat="42.6027" lon="2.08308">
        <ele>1600.528</ele>
        <time>2011-06-05T07:34:47Z</time>
      </trkpt>
      <trkpt lat="42.60259" lon="2.08294">
        <ele>1600.891</ele>
        <time>2011-06-05T07:34:52Z</time>
      </trkpt>
      <trkpt lat="42.60251" lon="2.08277">
        <ele>1600.889</ele>
        <time>2011-06-05T07:34:57Z</time>
      </trkpt>
      <trkpt lat="42.60239" lon="2.08254">
        <ele>1601.324</ele>
        <time>2011-06-05T07:35:04Z</time>
      </trkpt>
      <trkpt lat="42.60234" lon="2.08232">
        <ele>1602.278</ele>
        <time>2011-06-05T07:35:10Z</time>
      </trkpt>
      <trkpt lat="42.60234" lon="2.08213">
        <ele>1603.168</ele>
        <time>2011-06-05T07:35:16Z</time>
      </trkpt>
      <trkpt lat="42.60236" lon="2.08193">
        <ele>1604.364</ele>
        <time>2011-06-05T07:35:21Z</time>
      </trkpt>
      <trkpt lat="42.60239" lon="2.08175">
        <ele>1604.965</ele>
        <time>2011-06-05T07:35:26Z</time>
      </trkpt>
      <trkpt lat="42.60245" lon="2.08148">
        <ele>1605.781</ele>
        <time>2011-06-05T07:35:33Z</time>
      </trkpt>
      <trkpt lat="42.60249" lon="2.08134">
        <ele>1606.23</ele>
        <time>2011-06-05T07:35:37Z</time>
      </trkpt>
      <trkpt lat="42.6025" lon="2.08116">
        <ele>1606.923</ele>
        <time>2011-06-05T07:35:42Z</time>
      </trkpt>
      <trkpt lat="42.60244" lon="2.081">
        <ele>1607.818</ele>
        <time>2011-06-05T07:35:47Z</time>
      </trkpt>
      <trkpt lat="42.60235" lon="2.08096">
        <ele>1609.421</ele>
        <time>2011-06-05T07:35:52Z</time>
      </trkpt>
      <trkpt lat="42.60221" lon="2.08094">
        <ele>1610.904</ele>
        <time>2011-06-05T07:35:59Z</time>
      </trkpt>
      <trkpt lat="42.60213" lon="2.08081">
        <ele>1612.56</ele>
        <time>2011-06-05T07:36:05Z</time>
      </trkpt>
      <trkpt lat="42.60207" lon="2.08065">
        <ele>1614.044</ele>
        <time>2011-06-05T07:36:11Z</time>
      </trkpt>
      <trkpt lat="42.60202" lon="2.08059">
        <ele>1614.578</ele>
        <time>2011-06-05T07:36:14Z</time>
      </trkpt>
      <trkpt lat="42.6019" lon="2.08058">
        <ele>1616.743</ele>
        <time>2011-06-05T07:36:20Z</time>
      </trkpt>
      <trkpt lat="42.60176" lon="2.08063">
        <ele>1617.872</ele>
        <time>2011-06-05T07:36:26Z</time>
      </trkpt>
      <trkpt lat="42.60171" lon="2.08068">
        <ele>1618.099</ele>
        <time>2011-06-05T07:36:29Z</time>
      </trkpt>
      <trkpt lat="42.60147" lon="2.08083">
        <ele>1618.614</ele>
        <time>2011-06-05T07:36:39Z</time>
      </trkpt>
      <trkpt lat="42.60137" lon="2.08104">
        <ele>1619.434</ele>
        <time>2011-06-05T07:36:47Z</time>
      </trkpt>
      <trkpt lat="42.60123" lon="2.08118">
        <ele>1620.95</ele>
        <time>2011-06-05T07:36:54Z</time>
      </trkpt>
      <trkpt lat="42.60113" lon="2.08116">
        <ele>1622.616</ele>
        <time>2011-06-05T07:36:59Z</time>
      </trkpt>
      <trkpt lat="42.60103" lon="2.0811">
        <ele>1624.77</ele>
        <time>2011-06-05T07:37:05Z</time>
      </trkpt>
      <trkpt lat="42.60094" lon="2.08102">
        <ele>1626.357</ele>
        <time>2011-06-05T07:37:11Z</time>
      </trkpt>
      <trkpt lat="42.60092" lon="2.08086">
        <ele>1627.91</ele>
        <time>2011-06-05T07:37:18Z</time>
      </trkpt>
      <trkpt lat="42.60093" lon="2.08073">
        <ele>1629.484</ele>
        <time>2011-06-05T07:37:24Z</time>
      </trkpt>
      <trkpt lat="42.60095" lon="2.08059">
        <ele>1631.246</ele>
        <time>2011-06-05T07:37:30Z</time>
      </trkpt>
      <trkpt lat="42.60094" lon="2.08057">
        <ele>1631.577</ele>
        <time>2011-06-05T07:37:31Z</time>
      </trkpt>
      <trkpt lat="42.60085" lon="2.0804">
        <ele>1633.358</ele>
        <time>2011-06-05T07:37:39Z</time>
      </trkpt>
      <trkpt lat="42.60084" lon="2.08039">
        <ele>1633.576</ele>
        <time>2011-06-05T07:37:40Z</time>
      </trkpt>
      <trkpt lat="42.60071" lon="2.0804">
        <ele>1634.852</ele>
        <time>2011-06-05T07:37:47Z</time>
      </trkpt>
      <trkpt lat="42.60068" lon="2.08041">
        <ele>1635.159</ele>
        <time>2011-06-05T07:37:52Z</time>
      </trkpt>
      <trkpt lat="42.60068" lon="2.08043">
        <ele>1634.458</ele>
        <time>2011-06-05T07:37:57Z</time>
      </trkpt>
      <trkpt lat="42.60063" lon="2.08038">
        <ele>1635.109</ele>
        <time>2011-06-05T07:38:49Z</time>
      </trkpt>
      <trkpt lat="42.60064" lon="2.08039">
        <ele>1634.596</ele>
        <time>2011-06-05T07:38:56Z</time>
      </trkpt>
      <trkpt lat="42.60061" lon="2.08048">
        <ele>1635.065</ele>
        <time>2011-06-05T07:39:38Z</time>
      </trkpt>
      <trkpt lat="42.60051" lon="2.0806">
        <ele>1635.498</ele>
        <time>2011-06-05T07:39:43Z</time>
      </trkpt>
      <trkpt lat="42.60033" lon="2.08072">
        <ele>1637.355</ele>
        <time>2011-06-05T07:39:51Z</time>
      </trkpt>
      <trkpt lat="42.60018" lon="2.08073">
        <ele>1637.29</ele>
        <time>2011-06-05T07:39:56Z</time>
      </trkpt>
      <trkpt lat="42.60003" lon="2.08065">
        <ele>1637.308</ele>
        <time>2011-06-05T07:40:02Z</time>
      </trkpt>
      <trkpt lat="42.6" lon="2.08064">
        <ele>1637.405</ele>
        <time>2011-06-05T07:40:03Z</time>
      </trkpt>
      <trkpt lat="42.59981" lon="2.08062">
        <ele>1637.973</ele>
        <time>2011-06-05T07:40:10Z</time>
      </trkpt>
      <trkpt lat="42.59967" lon="2.08059">
        <ele>1638.405</ele>
        <time>2011-06-05T07:40:15Z</time>
      </trkpt>
      <trkpt lat="42.59955" lon="2.08056">
        <ele>1638.789</ele>
        <time>2011-06-05T07:40:19Z</time>
      </trkpt>
      <trkpt lat="42.59939" lon="2.08052">
        <ele>1638.786</ele>
        <time>2011-06-05T07:40:24Z</time>
      </trkpt>
      <trkpt lat="42.59925" lon="2.08046">
        <ele>1638.729</ele>
        <time>2011-06-05T07:40:28Z</time>
      </trkpt>
      <trkpt lat="42.59911" lon="2.08032">
        <ele>1638.764</ele>
        <time>2011-06-05T07:40:33Z</time>
      </trkpt>
      <trkpt lat="42.59899" lon="2.08014">
        <ele>1638.814</ele>
        <time>2011-06-05T07:40:38Z</time>
      </trkpt>
      <trkpt lat="42.59883" lon="2.07977">
        <ele>1638.943</ele>
        <time>2011-06-05T07:40:47Z</time>
      </trkpt>
      <trkpt lat="42.59873" lon="2.07953">
        <ele>1639.249</ele>
        <time>2011-06-05T07:40:53Z</time>
      </trkpt>
      <trkpt lat="42.59874" lon="2.07931">
        <ele>1639.59</ele>
        <time>2011-06-05T07:40:58Z</time>
      </trkpt>
      <trkpt lat="42.59881" lon="2.07908">
        <ele>1640.738</ele>
        <time>2011-06-05T07:41:05Z</time>
      </trkpt>
      <trkpt lat="42.59886" lon="2.07892">
        <ele>1642.079</ele>
        <time>2011-06-05T07:41:11Z</time>
      </trkpt>
      <trkpt lat="42.59886" lon="2.07881">
        <ele>1642.877</ele>
        <time>2011-06-05T07:41:15Z</time>
      </trkpt>
      <trkpt lat="42.59874" lon="2.0786">
        <ele>1642.536</ele>
        <time>2011-06-05T07:41:21Z</time>
      </trkpt>
      <trkpt lat="42.59865" lon="2.07851">
        <ele>1642.775</ele>
        <time>2011-06-05T07:41:25Z</time>
      </trkpt>
      <trkpt lat="42.59855" lon="2.07849">
        <ele>1643.113</ele>
        <time>2011-06-05T07:41:30Z</time>
      </trkpt>
      <trkpt lat="42.59844" lon="2.07844">
        <ele>1643.358</ele>
        <time>2011-06-05T07:41:34Z</time>
      </trkpt>
      <trkpt lat="42.5984" lon="2.07837">
        <ele>1643.542</ele>
        <time>2011-06-05T07:41:38Z</time>
      </trkpt>
      <trkpt lat="42.59838" lon="2.0783">
        <ele>1643.603</ele>
        <time>2011-06-05T07:41:40Z</time>
      </trkpt>
      <trkpt lat="42.59832" lon="2.07807">
        <ele>1644.092</ele>
        <time>2011-06-05T07:41:46Z</time>
      </trkpt>
      <trkpt lat="42.59823" lon="2.0779">
        <ele>1644.197</ele>
        <time>2011-06-05T07:41:51Z</time>
      </trkpt>
      <trkpt lat="42.59806" lon="2.07774">
        <ele>1643.919</ele>
        <time>2011-06-05T07:41:57Z</time>
      </trkpt>
      <trkpt lat="42.59785" lon="2.07756">
        <ele>1644.478</ele>
        <time>2011-06-05T07:42:05Z</time>
      </trkpt>
      <trkpt lat="42.59779" lon="2.07739">
        <ele>1645.072</ele>
        <time>2011-06-05T07:42:10Z</time>
      </trkpt>
      <trkpt lat="42.5978" lon="2.07724">
        <ele>1646.052</ele>
        <time>2011-06-05T07:42:15Z</time>
      </trkpt>
      <trkpt lat="42.59781" lon="2.0771">
        <ele>1647.251</ele>
        <time>2011-06-05T07:42:20Z</time>
      </trkpt>
      <trkpt lat="42.5978" lon="2.07697">
        <ele>1648.134</ele>
        <time>2011-06-05T07:42:24Z</time>
      </trkpt>
      <trkpt lat="42.59779" lon="2.07676">
        <ele>1649.044</ele>
        <time>2011-06-05T07:42:30Z</time>
      </trkpt>
      <trkpt lat="42.59775" lon="2.07661">
        <ele>1649.347</ele>
        <time>2011-06-05T07:42:35Z</time>
      </trkpt>
      <trkpt lat="42.59774" lon="2.07657">
        <ele>1649.259</ele>
        <time>2011-06-05T07:42:36Z</time>
      </trkpt>
      <trkpt lat="42.59767" lon="2.07644">
        <ele>1649.439</ele>
        <time>2011-06-05T07:42:41Z</time>
      </trkpt>
      <trkpt lat="42.59754" lon="2.07645">
        <ele>1651.121</ele>
        <time>2011-06-05T07:42:48Z</time>
      </trkpt>
      <trkpt lat="42.5975" lon="2.07645">
        <ele>1651.865</ele>
        <time>2011-06-05T07:42:50Z</time>
      </trkpt>
      <trkpt lat="42.59739" lon="2.07647">
        <ele>1654.077</ele>
        <time>2011-06-05T07:42:56Z</time>
      </trkpt>
      <trkpt lat="42.59725" lon="2.07657">
        <ele>1655.441</ele>
        <time>2011-06-05T07:43:03Z</time>
      </trkpt>
      <trkpt lat="42.59715" lon="2.07662">
        <ele>1656.164</ele>
        <time>2011-06-05T07:43:08Z</time>
      </trkpt>
      <trkpt lat="42.59701" lon="2.07665">
        <ele>1658.936</ele>
        <time>2011-06-05T07:43:15Z</time>
      </trkpt>
      <trkpt lat="42.59697" lon="2.07667">
        <ele>1660.021</ele>
        <time>2011-06-05T07:43:18Z</time>
      </trkpt>
      <trkpt lat="42.59693" lon="2.0767">
        <ele>1660.55</ele>
        <time>2011-06-05T07:43:23Z</time>
      </trkpt>
      <trkpt lat="42.59693" lon="2.07669">
        <ele>1660.615</ele>
        <time>2011-06-05T07:43:24Z</time>
      </trkpt>
      <trkpt lat="42.59698" lon="2.07657">
        <ele>1660.495</ele>
        <time>2011-06-05T07:43:31Z</time>
      </trkpt>
      <trkpt lat="42.597" lon="2.07648">
        <ele>1660.419</ele>
        <time>2011-06-05T07:43:35Z</time>
      </trkpt>
      <trkpt lat="42.59707" lon="2.07626">
        <ele>1660.682</ele>
        <time>2011-06-05T07:43:42Z</time>
      </trkpt>
      <trkpt lat="42.59716" lon="2.07607">
        <ele>1660.718</ele>
        <time>2011-06-05T07:43:48Z</time>
      </trkpt>
      <trkpt lat="42.59723" lon="2.07587">
        <ele>1660.501</ele>
        <time>2011-06-05T07:43:54Z</time>
      </trkpt>
      <trkpt lat="42.59722" lon="2.07572">
        <ele>1660.28</ele>
        <time>2011-06-05T07:43:58Z</time>
      </trkpt>
      <trkpt lat="42.59717" lon="2.07565">
        <ele>1660.173</ele>
        <time>2011-06-05T07:44:00Z</time>
      </trkpt>
      <trkpt lat="42.59705" lon="2.07559">
        <ele>1659.771</ele>
        <time>2011-06-05T07:44:03Z</time>
      </trkpt>
      <trkpt lat="42.59687" lon="2.07537">
        <ele>1658.369</ele>
        <time>2011-06-05T07:44:08Z</time>
      </trkpt>
      <trkpt lat="42.59672" lon="2.0751">
        <ele>1657.87</ele>
        <time>2011-06-05T07:44:13Z</time>
      </trkpt>
      <trkpt lat="42.59666" lon="2.07486">
        <ele>1657.129</ele>
        <time>2011-06-05T07:44:17Z</time>
      </trkpt>
      <trkpt lat="42.59667" lon="2.0748">
        <ele>1656.886</ele>
        <time>2011-06-05T07:44:18Z</time>
      </trkpt>
      <trkpt lat="42.59682" lon="2.07455">
        <ele>1656.296</ele>
        <time>2011-06-05T07:44:24Z</time>
      </trkpt>
      <trkpt lat="42.59693" lon="2.07452">
        <ele>1656.298</ele>
        <time>2011-06-05T07:44:27Z</time>
      </trkpt>
      <trkpt lat="42.59709" lon="2.07438">
        <ele>1656.338</ele>
        <time>2011-06-05T07:44:32Z</time>
      </trkpt>
      <trkpt lat="42.59722" lon="2.07415">
        <ele>1656.565</ele>
        <time>2011-06-05T07:44:38Z</time>
      </trkpt>
      <trkpt lat="42.59729" lon="2.07386">
        <ele>1656.49</ele>
        <time>2011-06-05T07:44:44Z</time>
      </trkpt>
      <trkpt lat="42.59726" lon="2.07366">
        <ele>1656.443</ele>
        <time>2011-06-05T07:44:48Z</time>
      </trkpt>
      <trkpt lat="42.59725" lon="2.07356">
        <ele>1656.361</ele>
        <time>2011-06-05T07:44:50Z</time>
      </trkpt>
      <trkpt lat="42.59717" lon="2.07323">
        <ele>1656.129</ele>
        <time>2011-06-05T07:44:57Z</time>
      </trkpt>
      <trkpt lat="42.5972" lon="2.07299">
        <ele>1656.744</ele>
        <time>2011-06-05T07:45:03Z</time>
      </trkpt>
      <trkpt lat="42.59728" lon="2.0728">
        <ele>1657.241</ele>
        <time>2011-06-05T07:45:09Z</time>
      </trkpt>
      <trkpt lat="42.59741" lon="2.07258">
        <ele>1657.531</ele>
        <time>2011-06-05T07:45:16Z</time>
      </trkpt>
      <trkpt lat="42.59752" lon="2.07239">
        <ele>1658.179</ele>
        <time>2011-06-05T07:45:22Z</time>
      </trkpt>
      <trkpt lat="42.59759" lon="2.07209">
        <ele>1659.049</ele>
        <time>2011-06-05T07:45:30Z</time>
      </trkpt>
      <trkpt lat="42.59759" lon="2.07181">
        <ele>1659.273</ele>
        <time>2011-06-05T07:45:37Z</time>
      </trkpt>
      <trkpt lat="42.59759" lon="2.07177">
        <ele>1659.368</ele>
        <time>2011-06-05T07:45:38Z</time>
      </trkpt>
      <trkpt lat="42.59759" lon="2.07156">
        <ele>1660.003</ele>
        <time>2011-06-05T07:45:43Z</time>
      </trkpt>
      <trkpt lat="42.5976" lon="2.07124">
        <ele>1660.915</ele>
        <time>2011-06-05T07:45:51Z</time>
      </trkpt>
      <trkpt lat="42.59763" lon="2.0709">
        <ele>1661.357</ele>
        <time>2011-06-05T07:45:59Z</time>
      </trkpt>
      <trkpt lat="42.59758" lon="2.0706">
        <ele>1661.825</ele>
        <time>2011-06-05T07:46:06Z</time>
      </trkpt>
      <trkpt lat="42.59757" lon="2.07032">
        <ele>1662.362</ele>
        <time>2011-06-05T07:46:13Z</time>
      </trkpt>
      <trkpt lat="42.59752" lon="2.07011">
        <ele>1662.556</ele>
        <time>2011-06-05T07:46:18Z</time>
      </trkpt>
      <trkpt lat="42.59737" lon="2.06991">
        <ele>1662.793</ele>
        <time>2011-06-05T07:46:24Z</time>
      </trkpt>
      <trkpt lat="42.59724" lon="2.06984">
        <ele>1662.248</ele>
        <time>2011-06-05T07:46:28Z</time>
      </trkpt>
      <trkpt lat="42.5972" lon="2.06981">
        <ele>1661.947</ele>
        <time>2011-06-05T07:46:29Z</time>
      </trkpt>
      <trkpt lat="42.59692" lon="2.0697">
        <ele>1660.871</ele>
        <time>2011-06-05T07:46:36Z</time>
      </trkpt>
      <trkpt lat="42.59689" lon="2.06969">
        <ele>1660.626</ele>
        <time>2011-06-05T07:46:39Z</time>
      </trkpt>
      <trkpt lat="42.59689" lon="2.06972">
        <ele>1660.563</ele>
        <time>2011-06-05T07:47:11Z</time>
      </trkpt>
      <trkpt lat="42.59683" lon="2.06973">
        <ele>1660.542</ele>
        <time>2011-06-05T07:47:15Z</time>
      </trkpt>
      <trkpt lat="42.59666" lon="2.06969">
        <ele>1660.496</ele>
        <time>2011-06-05T07:47:20Z</time>
      </trkpt>
      <trkpt lat="42.59641" lon="2.06965">
        <ele>1661.049</ele>
        <time>2011-06-05T07:47:27Z</time>
      </trkpt>
      <trkpt lat="42.59614" lon="2.06958">
        <ele>1661.449</ele>
        <time>2011-06-05T07:47:35Z</time>
      </trkpt>
      <trkpt lat="42.59594" lon="2.06952">
        <ele>1661.978</ele>
        <time>2011-06-05T07:47:41Z</time>
      </trkpt>
      <trkpt lat="42.59577" lon="2.06946">
        <ele>1662.199</ele>
        <time>2011-06-05T07:47:46Z</time>
      </trkpt>
      <trkpt lat="42.59551" lon="2.06938">
        <ele>1663.029</ele>
        <time>2011-06-05T07:47:54Z</time>
      </trkpt>
      <trkpt lat="42.59529" lon="2.06926">
        <ele>1663.44</ele>
        <time>2011-06-05T07:48:01Z</time>
      </trkpt>
      <trkpt lat="42.59505" lon="2.0691">
        <ele>1663.382</ele>
        <time>2011-06-05T07:48:09Z</time>
      </trkpt>
      <trkpt lat="42.59492" lon="2.06896">
        <ele>1664.496</ele>
        <time>2011-06-05T07:48:15Z</time>
      </trkpt>
      <trkpt lat="42.5949" lon="2.06879">
        <ele>1665.874</ele>
        <time>2011-06-05T07:48:20Z</time>
      </trkpt>
      <trkpt lat="42.59499" lon="2.06865">
        <ele>1667.038</ele>
        <time>2011-06-05T07:48:25Z</time>
      </trkpt>
      <trkpt lat="42.5951" lon="2.06864">
        <ele>1667.925</ele>
        <time>2011-06-05T07:48:29Z</time>
      </trkpt>
      <trkpt lat="42.59529" lon="2.06878">
        <ele>1669.144</ele>
        <time>2011-06-05T07:48:37Z</time>
      </trkpt>
      <trkpt lat="42.59541" lon="2.06885">
        <ele>1669.935</ele>
        <time>2011-06-05T07:48:42Z</time>
      </trkpt>
      <trkpt lat="42.59556" lon="2.06889">
        <ele>1670.83</ele>
        <time>2011-06-05T07:48:48Z</time>
      </trkpt>
      <trkpt lat="42.59576" lon="2.0689">
        <ele>1672.258</ele>
        <time>2011-06-05T07:48:55Z</time>
      </trkpt>
      <trkpt lat="42.59593" lon="2.06888">
        <ele>1673.273</ele>
        <time>2011-06-05T07:49:01Z</time>
      </trkpt>
      <trkpt lat="42.59598" lon="2.06888">
        <ele>1673.617</ele>
        <time>2011-06-05T07:49:03Z</time>
      </trkpt>
      <trkpt lat="42.59613" lon="2.06885">
        <ele>1674.662</ele>
        <time>2011-06-05T07:49:09Z</time>
      </trkpt>
      <trkpt lat="42.59625" lon="2.06885">
        <ele>1675.707</ele>
        <time>2011-06-05T07:49:14Z</time>
      </trkpt>
      <trkpt lat="42.5964" lon="2.06886">
        <ele>1676.9</ele>
        <time>2011-06-05T07:49:20Z</time>
      </trkpt>
      <trkpt lat="42.59659" lon="2.06892">
        <ele>1677.913</ele>
        <time>2011-06-05T07:49:27Z</time>
      </trkpt>
      <trkpt lat="42.59673" lon="2.06898">
        <ele>1679.411</ele>
        <time>2011-06-05T07:49:33Z</time>
      </trkpt>
      <trkpt lat="42.59685" lon="2.069">
        <ele>1680.405</ele>
        <time>2011-06-05T07:49:38Z</time>
      </trkpt>
      <trkpt lat="42.59693" lon="2.06902">
        <ele>1681.333</ele>
        <time>2011-06-05T07:49:43Z</time>
      </trkpt>
      <trkpt lat="42.59695" lon="2.06904">
        <ele>1681.593</ele>
        <time>2011-06-05T07:49:45Z</time>
      </trkpt>
      <trkpt lat="42.59702" lon="2.06903">
        <ele>1682.07</ele>
        <time>2011-06-05T07:49:51Z</time>
      </trkpt>
      <trkpt lat="42.59709" lon="2.06901">
        <ele>1682.253</ele>
        <time>2011-06-05T07:50:25Z</time>
      </trkpt>
      <trkpt lat="42.59716" lon="2.06902">
        <ele>1683.234</ele>
        <time>2011-06-05T07:50:30Z</time>
      </trkpt>
      <trkpt lat="42.5972" lon="2.06905">
        <ele>1683.695</ele>
        <time>2011-06-05T07:50:33Z</time>
      </trkpt>
      <trkpt lat="42.59716" lon="2.06907">
        <ele>1683.892</ele>
        <time>2011-06-05T07:50:37Z</time>
      </trkpt>
      <trkpt lat="42.59711" lon="2.06905">
        <ele>1683.663</ele>
        <time>2011-06-05T07:50:39Z</time>
      </trkpt>
      <trkpt lat="42.59707" lon="2.06904">
        <ele>1683.422</ele>
        <time>2011-06-05T07:50:44Z</time>
      </trkpt>
      <trkpt lat="42.59706" lon="2.06907">
        <ele>1683.275</ele>
        <time>2011-06-05T07:50:59Z</time>
      </trkpt>
      <trkpt lat="42.5971" lon="2.06906">
        <ele>1683.377</ele>
        <time>2011-06-05T07:51:03Z</time>
      </trkpt>
      <trkpt lat="42.59722" lon="2.06908">
        <ele>1684.029</ele>
        <time>2011-06-05T07:51:09Z</time>
      </trkpt>
      <trkpt lat="42.59738" lon="2.06913">
        <ele>1685.694</ele>
        <time>2011-06-05T07:51:16Z</time>
      </trkpt>
      <trkpt lat="42.59749" lon="2.06916">
        <ele>1686.391</ele>
        <time>2011-06-05T07:51:21Z</time>
      </trkpt>
      <trkpt lat="42.5977" lon="2.06921">
        <ele>1687.723</ele>
        <time>2011-06-05T07:51:29Z</time>
      </trkpt>
      <trkpt lat="42.59782" lon="2.06929">
        <ele>1688.451</ele>
        <time>2011-06-05T07:51:34Z</time>
      </trkpt>
      <trkpt lat="42.59791" lon="2.06931">
        <ele>1688.979</ele>
        <time>2011-06-05T07:51:38Z</time>
      </trkpt>
      <trkpt lat="42.59806" lon="2.06929">
        <ele>1690.213</ele>
        <time>2011-06-05T07:51:44Z</time>
      </trkpt>
      <trkpt lat="42.59821" lon="2.06933">
        <ele>1691.422</ele>
        <time>2011-06-05T07:51:50Z</time>
      </trkpt>
      <trkpt lat="42.59836" lon="2.06931">
        <ele>1692.534</ele>
        <time>2011-06-05T07:51:56Z</time>
      </trkpt>
      <trkpt lat="42.5985" lon="2.06928">
        <ele>1693.755</ele>
        <time>2011-06-05T07:52:02Z</time>
      </trkpt>
      <trkpt lat="42.59869" lon="2.06917">
        <ele>1695.181</ele>
        <time>2011-06-05T07:52:09Z</time>
      </trkpt>
      <trkpt lat="42.59877" lon="2.06902">
        <ele>1696.555</ele>
        <time>2011-06-05T07:52:15Z</time>
      </trkpt>
      <trkpt lat="42.59878" lon="2.06885">
        <ele>1697.406</ele>
        <time>2011-06-05T07:52:20Z</time>
      </trkpt>
      <trkpt lat="42.59876" lon="2.06876">
        <ele>1697.73</ele>
        <time>2011-06-05T07:52:23Z</time>
      </trkpt>
      <trkpt lat="42.59863" lon="2.06868">
        <ele>1697.882</ele>
        <time>2011-06-05T07:52:30Z</time>
      </trkpt>
      <trkpt lat="42.59848" lon="2.06847">
        <ele>1700.641</ele>
        <time>2011-06-05T07:52:39Z</time>
      </trkpt>
      <trkpt lat="42.59845" lon="2.06828">
        <ele>1701.669</ele>
        <time>2011-06-05T07:52:45Z</time>
      </trkpt>
      <trkpt lat="42.59846" lon="2.06811">
        <ele>1702.658</ele>
        <time>2011-06-05T07:52:51Z</time>
      </trkpt>
      <trkpt lat="42.59845" lon="2.06797">
        <ele>1703.888</ele>
        <time>2011-06-05T07:52:56Z</time>
      </trkpt>
      <trkpt lat="42.59845" lon="2.06779">
        <ele>1704.892</ele>
        <time>2011-06-05T07:53:02Z</time>
      </trkpt>
      <trkpt lat="42.59852" lon="2.06758">
        <ele>1706.01</ele>
        <time>2011-06-05T07:53:09Z</time>
      </trkpt>
      <trkpt lat="42.59856" lon="2.0674">
        <ele>1707.073</ele>
        <time>2011-06-05T07:53:15Z</time>
      </trkpt>
      <trkpt lat="42.59863" lon="2.06721">
        <ele>1708.797</ele>
        <time>2011-06-05T07:53:22Z</time>
      </trkpt>
      <trkpt lat="42.59868" lon="2.06703">
        <ele>1709.788</ele>
        <time>2011-06-05T07:53:28Z</time>
      </trkpt>
      <trkpt lat="42.59875" lon="2.06682">
        <ele>1711.332</ele>
        <time>2011-06-05T07:53:35Z</time>
      </trkpt>
      <trkpt lat="42.59884" lon="2.06664">
        <ele>1712.555</ele>
        <time>2011-06-05T07:53:42Z</time>
      </trkpt>
      <trkpt lat="42.59885" lon="2.06661">
        <ele>1712.773</ele>
        <time>2011-06-05T07:53:43Z</time>
      </trkpt>
      <trkpt lat="42.59887" lon="2.06649">
        <ele>1713.733</ele>
        <time>2011-06-05T07:53:47Z</time>
      </trkpt>
      <trkpt lat="42.5989" lon="2.06628">
        <ele>1715.243</ele>
        <time>2011-06-05T07:53:54Z</time>
      </trkpt>
      <trkpt lat="42.59896" lon="2.06611">
        <ele>1716.425</ele>
        <time>2011-06-05T07:54:00Z</time>
      </trkpt>
      <trkpt lat="42.59898" lon="2.06592">
        <ele>1717.681</ele>
        <time>2011-06-05T07:54:07Z</time>
      </trkpt>
      <trkpt lat="42.59896" lon="2.06569">
        <ele>1719.399</ele>
        <time>2011-06-05T07:54:14Z</time>
      </trkpt>
      <trkpt lat="42.59896" lon="2.0655">
        <ele>1720.548</ele>
        <time>2011-06-05T07:54:20Z</time>
      </trkpt>
      <trkpt lat="42.59897" lon="2.06535">
        <ele>1721.678</ele>
        <time>2011-06-05T07:54:25Z</time>
      </trkpt>
      <trkpt lat="42.599" lon="2.0652">
        <ele>1722.559</ele>
        <time>2011-06-05T07:54:30Z</time>
      </trkpt>
      <trkpt lat="42.599" lon="2.06502">
        <ele>1723.676</ele>
        <time>2011-06-05T07:54:36Z</time>
      </trkpt>
      <trkpt lat="42.59898" lon="2.06482">
        <ele>1725.136</ele>
        <time>2011-06-05T07:54:43Z</time>
      </trkpt>
      <trkpt lat="42.59898" lon="2.06468">
        <ele>1725.947</ele>
        <time>2011-06-05T07:54:48Z</time>
      </trkpt>
      <trkpt lat="42.59896" lon="2.06449">
        <ele>1726.878</ele>
        <time>2011-06-05T07:54:54Z</time>
      </trkpt>
      <trkpt lat="42.5989" lon="2.06423">
        <ele>1728.24</ele>
        <time>2011-06-05T07:55:02Z</time>
      </trkpt>
      <trkpt lat="42.59889" lon="2.06401">
        <ele>1729.923</ele>
        <time>2011-06-05T07:55:09Z</time>
      </trkpt>
      <trkpt lat="42.59889" lon="2.06379">
        <ele>1731.232</ele>
        <time>2011-06-05T07:55:16Z</time>
      </trkpt>
      <trkpt lat="42.59892" lon="2.0635">
        <ele>1732.868</ele>
        <time>2011-06-05T07:55:25Z</time>
      </trkpt>
      <trkpt lat="42.59895" lon="2.06332">
        <ele>1734.035</ele>
        <time>2011-06-05T07:55:31Z</time>
      </trkpt>
      <trkpt lat="42.59897" lon="2.0631">
        <ele>1735.401</ele>
        <time>2011-06-05T07:55:38Z</time>
      </trkpt>
      <trkpt lat="42.59899" lon="2.06284">
        <ele>1737.153</ele>
        <time>2011-06-05T07:55:46Z</time>
      </trkpt>
      <trkpt lat="42.599" lon="2.06259">
        <ele>1738.438</ele>
        <time>2011-06-05T07:55:54Z</time>
      </trkpt>
      <trkpt lat="42.59903" lon="2.06238">
        <ele>1739.779</ele>
        <time>2011-06-05T07:56:01Z</time>
      </trkpt>
      <trkpt lat="42.59909" lon="2.06215">
        <ele>1741.275</ele>
        <time>2011-06-05T07:56:09Z</time>
      </trkpt>
      <trkpt lat="42.59912" lon="2.06191">
        <ele>1742.529</ele>
        <time>2011-06-05T07:56:17Z</time>
      </trkpt>
      <trkpt lat="42.59917" lon="2.0617">
        <ele>1744.077</ele>
        <time>2011-06-05T07:56:24Z</time>
      </trkpt>
      <trkpt lat="42.59925" lon="2.06141">
        <ele>1745.698</ele>
        <time>2011-06-05T07:56:34Z</time>
      </trkpt>
      <trkpt lat="42.59933" lon="2.06118">
        <ele>1747.434</ele>
        <time>2011-06-05T07:56:42Z</time>
      </trkpt>
      <trkpt lat="42.59947" lon="2.06092">
        <ele>1749.214</ele>
        <time>2011-06-05T07:56:52Z</time>
      </trkpt>
      <trkpt lat="42.59952" lon="2.06073">
        <ele>1750.314</ele>
        <time>2011-06-05T07:56:58Z</time>
      </trkpt>
      <trkpt lat="42.5996" lon="2.06044">
        <ele>1752.658</ele>
        <time>2011-06-05T07:57:08Z</time>
      </trkpt>
      <trkpt lat="42.59966" lon="2.06018">
        <ele>1754.594</ele>
        <time>2011-06-05T07:57:17Z</time>
      </trkpt>
      <trkpt lat="42.59973" lon="2.05996">
        <ele>1755.823</ele>
        <time>2011-06-05T07:57:25Z</time>
      </trkpt>
      <trkpt lat="42.59982" lon="2.05969">
        <ele>1758.187</ele>
        <time>2011-06-05T07:57:34Z</time>
      </trkpt>
      <trkpt lat="42.59994" lon="2.05947">
        <ele>1760.447</ele>
        <time>2011-06-05T07:57:43Z</time>
      </trkpt>
      <trkpt lat="42.60007" lon="2.05941">
        <ele>1761.605</ele>
        <time>2011-06-05T07:57:49Z</time>
      </trkpt>
      <trkpt lat="42.60018" lon="2.05946">
        <ele>1762.339</ele>
        <time>2011-06-05T07:57:54Z</time>
      </trkpt>
      <trkpt lat="42.60035" lon="2.05949">
        <ele>1763.555</ele>
        <time>2011-06-05T07:58:01Z</time>
      </trkpt>
      <trkpt lat="42.60046" lon="2.05942">
        <ele>1764.701</ele>
        <time>2011-06-05T07:58:07Z</time>
      </trkpt>
      <trkpt lat="42.60059" lon="2.05929">
        <ele>1766.193</ele>
        <time>2011-06-05T07:58:14Z</time>
      </trkpt>
      <trkpt lat="42.60071" lon="2.05917">
        <ele>1767.338</ele>
        <time>2011-06-05T07:58:21Z</time>
      </trkpt>
      <trkpt lat="42.60078" lon="2.05907">
        <ele>1768.382</ele>
        <time>2011-06-05T07:58:26Z</time>
      </trkpt>
      <trkpt lat="42.60087" lon="2.05892">
        <ele>1769.638</ele>
        <time>2011-06-05T07:58:33Z</time>
      </trkpt>
      <trkpt lat="42.60099" lon="2.0587">
        <ele>1771.058</ele>
        <time>2011-06-05T07:58:41Z</time>
      </trkpt>
      <trkpt lat="42.60108" lon="2.05852">
        <ele>1772.214</ele>
        <time>2011-06-05T07:58:48Z</time>
      </trkpt>
      <trkpt lat="42.60117" lon="2.05833">
        <ele>1773.666</ele>
        <time>2011-06-05T07:58:55Z</time>
      </trkpt>
      <trkpt lat="42.60126" lon="2.05817">
        <ele>1774.884</ele>
        <time>2011-06-05T07:59:01Z</time>
      </trkpt>
      <trkpt lat="42.60133" lon="2.05803">
        <ele>1776.249</ele>
        <time>2011-06-05T07:59:07Z</time>
      </trkpt>
      <trkpt lat="42.60138" lon="2.05786">
        <ele>1777.649</ele>
        <time>2011-06-05T07:59:13Z</time>
      </trkpt>
      <trkpt lat="42.6015" lon="2.05755">
        <ele>1779.768</ele>
        <time>2011-06-05T07:59:24Z</time>
      </trkpt>
      <trkpt lat="42.60157" lon="2.05733">
        <ele>1781.569</ele>
        <time>2011-06-05T07:59:32Z</time>
      </trkpt>
      <trkpt lat="42.60161" lon="2.05715">
        <ele>1782.611</ele>
        <time>2011-06-05T07:59:38Z</time>
      </trkpt>
      <trkpt lat="42.60165" lon="2.05694">
        <ele>1784.16</ele>
        <time>2011-06-05T07:59:45Z</time>
      </trkpt>
      <trkpt lat="42.60165" lon="2.05675">
        <ele>1785.652</ele>
        <time>2011-06-05T07:59:51Z</time>
      </trkpt>
      <trkpt lat="42.60163" lon="2.05656">
        <ele>1786.308</ele>
        <time>2011-06-05T07:59:57Z</time>
      </trkpt>
      <trkpt lat="42.60172" lon="2.05638">
        <ele>1786.952</ele>
        <time>2011-06-05T08:00:03Z</time>
      </trkpt>
      <trkpt lat="42.60188" lon="2.05626">
        <ele>1788.114</ele>
        <time>2011-06-05T08:00:09Z</time>
      </trkpt>
      <trkpt lat="42.60198" lon="2.05606">
        <ele>1789.452</ele>
        <time>2011-06-05T08:00:16Z</time>
      </trkpt>
      <trkpt lat="42.60207" lon="2.05579">
        <ele>1790.881</ele>
        <time>2011-06-05T08:00:25Z</time>
      </trkpt>
      <trkpt lat="42.60214" lon="2.05556">
        <ele>1792.634</ele>
        <time>2011-06-05T08:00:33Z</time>
      </trkpt>
      <trkpt lat="42.60222" lon="2.05534">
        <ele>1794.49</ele>
        <time>2011-06-05T08:00:41Z</time>
      </trkpt>
      <trkpt lat="42.60229" lon="2.05514">
        <ele>1796.375</ele>
        <time>2011-06-05T08:00:49Z</time>
      </trkpt>
      <trkpt lat="42.60236" lon="2.05488">
        <ele>1798.654</ele>
        <time>2011-06-05T08:00:59Z</time>
      </trkpt>
      <trkpt lat="42.60238" lon="2.05473">
        <ele>1800.183</ele>
        <time>2011-06-05T08:01:04Z</time>
      </trkpt>
      <trkpt lat="42.60241" lon="2.05458">
        <ele>1801.57</ele>
        <time>2011-06-05T08:01:10Z</time>
      </trkpt>
      <trkpt lat="42.60246" lon="2.05438">
        <ele>1802.921</ele>
        <time>2011-06-05T08:01:18Z</time>
      </trkpt>
      <trkpt lat="42.60252" lon="2.05418">
        <ele>1804.732</ele>
        <time>2011-06-05T08:01:26Z</time>
      </trkpt>
      <trkpt lat="42.60258" lon="2.05397">
        <ele>1806.382</ele>
        <time>2011-06-05T08:01:34Z</time>
      </trkpt>
      <trkpt lat="42.60263" lon="2.05379">
        <ele>1807.182</ele>
        <time>2011-06-05T08:01:41Z</time>
      </trkpt>
      <trkpt lat="42.60271" lon="2.05355">
        <ele>1809.009</ele>
        <time>2011-06-05T08:01:50Z</time>
      </trkpt>
      <trkpt lat="42.60276" lon="2.05339">
        <ele>1810.049</ele>
        <time>2011-06-05T08:01:56Z</time>
      </trkpt>
      <trkpt lat="42.60284" lon="2.05323">
        <ele>1811.38</ele>
        <time>2011-06-05T08:02:03Z</time>
      </trkpt>
      <trkpt lat="42.60292" lon="2.05304">
        <ele>1812.692</ele>
        <time>2011-06-05T08:02:10Z</time>
      </trkpt>
      <trkpt lat="42.60302" lon="2.05289">
        <ele>1814.635</ele>
        <time>2011-06-05T08:02:17Z</time>
      </trkpt>
      <trkpt lat="42.60317" lon="2.05279">
        <ele>1816.46</ele>
        <time>2011-06-05T08:02:25Z</time>
      </trkpt>
      <trkpt lat="42.60331" lon="2.05267">
        <ele>1817.808</ele>
        <time>2011-06-05T08:02:32Z</time>
      </trkpt>
      <trkpt lat="42.6035" lon="2.0525">
        <ele>1819.83</ele>
        <time>2011-06-05T08:02:43Z</time>
      </trkpt>
      <trkpt lat="42.60364" lon="2.05238">
        <ele>1821.472</ele>
        <time>2011-06-05T08:02:51Z</time>
      </trkpt>
      <trkpt lat="42.60376" lon="2.05229">
        <ele>1822.44</ele>
        <time>2011-06-05T08:02:57Z</time>
      </trkpt>
      <trkpt lat="42.60379" lon="2.05225">
        <ele>1822.825</ele>
        <time>2011-06-05T08:02:59Z</time>
      </trkpt>
      <trkpt lat="42.60376" lon="2.05214">
        <ele>1823.868</ele>
        <time>2011-06-05T08:03:04Z</time>
      </trkpt>
      <trkpt lat="42.6037" lon="2.05213">
        <ele>1824.31</ele>
        <time>2011-06-05T08:03:07Z</time>
      </trkpt>
      <trkpt lat="42.60358" lon="2.05225">
        <ele>1825.467</ele>
        <time>2011-06-05T08:03:14Z</time>
      </trkpt>
      <trkpt lat="42.60346" lon="2.05232">
        <ele>1826.295</ele>
        <time>2011-06-05T08:03:20Z</time>
      </trkpt>
      <trkpt lat="42.60329" lon="2.0524">
        <ele>1827.35</ele>
        <time>2011-06-05T08:03:28Z</time>
      </trkpt>
      <trkpt lat="42.6031" lon="2.05247">
        <ele>1829.056</ele>
        <time>2011-06-05T08:03:37Z</time>
      </trkpt>
      <trkpt lat="42.60294" lon="2.05252">
        <ele>1830.514</ele>
        <time>2011-06-05T08:03:45Z</time>
      </trkpt>
      <trkpt lat="42.60275" lon="2.05257">
        <ele>1832.846</ele>
        <time>2011-06-05T08:03:55Z</time>
      </trkpt>
      <trkpt lat="42.60261" lon="2.05266">
        <ele>1834.467</ele>
        <time>2011-06-05T08:04:02Z</time>
      </trkpt>
      <trkpt lat="42.60251" lon="2.05279">
        <ele>1835.385</ele>
        <time>2011-06-05T08:04:08Z</time>
      </trkpt>
      <trkpt lat="42.60241" lon="2.053">
        <ele>1836.434</ele>
        <time>2011-06-05T08:04:16Z</time>
      </trkpt>
      <trkpt lat="42.60231" lon="2.05318">
        <ele>1837.595</ele>
        <time>2011-06-05T08:04:23Z</time>
      </trkpt>
      <trkpt lat="42.60221" lon="2.0533">
        <ele>1838.945</ele>
        <time>2011-06-05T08:04:29Z</time>
      </trkpt>
      <trkpt lat="42.60211" lon="2.05348">
        <ele>1840.131</ele>
        <time>2011-06-05T08:04:36Z</time>
      </trkpt>
      <trkpt lat="42.60203" lon="2.05362">
        <ele>1840.863</ele>
        <time>2011-06-05T08:04:42Z</time>
      </trkpt>
      <trkpt lat="42.60194" lon="2.05377">
        <ele>1841.355</ele>
        <time>2011-06-05T08:04:48Z</time>
      </trkpt>
      <trkpt lat="42.60183" lon="2.05394">
        <ele>1842.818</ele>
        <time>2011-06-05T08:04:55Z</time>
      </trkpt>
      <trkpt lat="42.60169" lon="2.05413">
        <ele>1844.25</ele>
        <time>2011-06-05T08:05:03Z</time>
      </trkpt>
      <trkpt lat="42.60153" lon="2.05431">
        <ele>1845.958</ele>
        <time>2011-06-05T08:05:12Z</time>
      </trkpt>
      <trkpt lat="42.60136" lon="2.05441">
        <ele>1847.198</ele>
        <time>2011-06-05T08:05:20Z</time>
      </trkpt>
      <trkpt lat="42.60119" lon="2.05449">
        <ele>1848.474</ele>
        <time>2011-06-05T08:05:28Z</time>
      </trkpt>
      <trkpt lat="42.601" lon="2.05459">
        <ele>1850.328</ele>
        <time>2011-06-05T08:05:37Z</time>
      </trkpt>
      <trkpt lat="42.60083" lon="2.05471">
        <ele>1851.948</ele>
        <time>2011-06-05T08:05:45Z</time>
      </trkpt>
      <trkpt lat="42.60066" lon="2.05481">
        <ele>1853.057</ele>
        <time>2011-06-05T08:05:53Z</time>
      </trkpt>
      <trkpt lat="42.60048" lon="2.0549">
        <ele>1854.414</ele>
        <time>2011-06-05T08:06:01Z</time>
      </trkpt>
      <trkpt lat="42.60027" lon="2.05498">
        <ele>1854.692</ele>
        <time>2011-06-05T08:06:09Z</time>
      </trkpt>
      <trkpt lat="42.60008" lon="2.05511">
        <ele>1854.112</ele>
        <time>2011-06-05T08:06:16Z</time>
      </trkpt>
      <trkpt lat="42.59993" lon="2.05534">
        <ele>1852.912</ele>
        <time>2011-06-05T08:06:22Z</time>
      </trkpt>
      <trkpt lat="42.59979" lon="2.0555">
        <ele>1852.378</ele>
        <time>2011-06-05T08:06:27Z</time>
      </trkpt>
      <trkpt lat="42.59966" lon="2.05567">
        <ele>1852.082</ele>
        <time>2011-06-05T08:06:33Z</time>
      </trkpt>
      <trkpt lat="42.59957" lon="2.05594">
        <ele>1851.683</ele>
        <time>2011-06-05T08:06:39Z</time>
      </trkpt>
      <trkpt lat="42.59956" lon="2.05599">
        <ele>1851.451</ele>
        <time>2011-06-05T08:06:40Z</time>
      </trkpt>
      <trkpt lat="42.5994" lon="2.05634">
        <ele>1849.802</ele>
        <time>2011-06-05T08:06:46Z</time>
      </trkpt>
      <trkpt lat="42.59924" lon="2.05678">
        <ele>1847.124</ele>
        <time>2011-06-05T08:06:52Z</time>
      </trkpt>
      <trkpt lat="42.59908" lon="2.05705">
        <ele>1845.191</ele>
        <time>2011-06-05T08:06:56Z</time>
      </trkpt>
      <trkpt lat="42.59899" lon="2.05719">
        <ele>1844.125</ele>
        <time>2011-06-05T08:06:58Z</time>
      </trkpt>
      <trkpt lat="42.59849" lon="2.05768">
        <ele>1839.694</ele>
        <time>2011-06-05T08:07:06Z</time>
      </trkpt>
      <trkpt lat="42.59842" lon="2.05774">
        <ele>1839.078</ele>
        <time>2011-06-05T08:07:07Z</time>
      </trkpt>
      <trkpt lat="42.59813" lon="2.05785">
        <ele>1836.465</ele>
        <time>2011-06-05T08:07:11Z</time>
      </trkpt>
      <trkpt lat="42.59798" lon="2.05781">
        <ele>1835.776</ele>
        <time>2011-06-05T08:07:13Z</time>
      </trkpt>
      <trkpt lat="42.59775" lon="2.05775">
        <ele>1834.372</ele>
        <time>2011-06-05T08:07:17Z</time>
      </trkpt>
      <trkpt lat="42.59769" lon="2.05777">
        <ele>1834.021</ele>
        <time>2011-06-05T08:07:18Z</time>
      </trkpt>
      <trkpt lat="42.59728" lon="2.05798">
        <ele>1832.203</ele>
        <time>2011-06-05T08:07:25Z</time>
      </trkpt>
      <trkpt lat="42.59695" lon="2.05834">
        <ele>1830.93</ele>
        <time>2011-06-05T08:07:32Z</time>
      </trkpt>
      <trkpt lat="42.59681" lon="2.05853">
        <ele>1830.609</ele>
        <time>2011-06-05T08:07:36Z</time>
      </trkpt>
      <trkpt lat="42.59671" lon="2.0587">
        <ele>1830.585</ele>
        <time>2011-06-05T08:07:40Z</time>
      </trkpt>
      <trkpt lat="42.59666" lon="2.05879">
        <ele>1830.557</ele>
        <time>2011-06-05T08:07:42Z</time>
      </trkpt>
      <trkpt lat="42.5964" lon="2.0591">
        <ele>1831.205</ele>
        <time>2011-06-05T08:07:50Z</time>
      </trkpt>
      <trkpt lat="42.59628" lon="2.0592">
        <ele>1831.242</ele>
        <time>2011-06-05T08:07:54Z</time>
      </trkpt>
      <trkpt lat="42.59615" lon="2.05933">
        <ele>1831.139</ele>
        <time>2011-06-05T08:07:58Z</time>
      </trkpt>
      <trkpt lat="42.59592" lon="2.05961">
        <ele>1831.599</ele>
        <time>2011-06-05T08:08:05Z</time>
      </trkpt>
      <trkpt lat="42.5957" lon="2.05986">
        <ele>1832.242</ele>
        <time>2011-06-05T08:08:12Z</time>
      </trkpt>
      <trkpt lat="42.59556" lon="2.05998">
        <ele>1832.611</ele>
        <time>2011-06-05T08:08:16Z</time>
      </trkpt>
      <trkpt lat="42.59531" lon="2.06028">
        <ele>1832.764</ele>
        <time>2011-06-05T08:08:24Z</time>
      </trkpt>
      <trkpt lat="42.59519" lon="2.06043">
        <ele>1832.96</ele>
        <time>2011-06-05T08:08:28Z</time>
      </trkpt>
      <trkpt lat="42.59516" lon="2.06047">
        <ele>1833.022</ele>
        <time>2011-06-05T08:08:29Z</time>
      </trkpt>
      <trkpt lat="42.59492" lon="2.06076">
        <ele>1832.566</ele>
        <time>2011-06-05T08:08:36Z</time>
      </trkpt>
      <trkpt lat="42.59486" lon="2.06084">
        <ele>1832.761</ele>
        <time>2011-06-05T08:08:38Z</time>
      </trkpt>
      <trkpt lat="42.59464" lon="2.06115">
        <ele>1833.014</ele>
        <time>2011-06-05T08:08:45Z</time>
      </trkpt>
      <trkpt lat="42.59453" lon="2.06135">
        <ele>1833.265</ele>
        <time>2011-06-05T08:08:49Z</time>
      </trkpt>
      <trkpt lat="42.59449" lon="2.06146">
        <ele>1833.334</ele>
        <time>2011-06-05T08:08:51Z</time>
      </trkpt>
      <trkpt lat="42.59433" lon="2.06169">
        <ele>1833.347</ele>
        <time>2011-06-05T08:08:56Z</time>
      </trkpt>
      <trkpt lat="42.59429" lon="2.06179">
        <ele>1833.614</ele>
        <time>2011-06-05T08:08:58Z</time>
      </trkpt>
      <trkpt lat="42.59424" lon="2.06189">
        <ele>1833.682</ele>
        <time>2011-06-05T08:09:00Z</time>
      </trkpt>
      <trkpt lat="42.59409" lon="2.0622">
        <ele>1833.757</ele>
        <time>2011-06-05T08:09:06Z</time>
      </trkpt>
      <trkpt lat="42.594" lon="2.06236">
        <ele>1833.701</ele>
        <time>2011-06-05T08:09:09Z</time>
      </trkpt>
      <trkpt lat="42.59394" lon="2.06246">
        <ele>1833.853</ele>
        <time>2011-06-05T08:09:11Z</time>
      </trkpt>
      <trkpt lat="42.59374" lon="2.06256">
        <ele>1834.01</ele>
        <time>2011-06-05T08:09:16Z</time>
      </trkpt>
      <trkpt lat="42.5937" lon="2.06253">
        <ele>1834.044</ele>
        <time>2011-06-05T08:09:17Z</time>
      </trkpt>
      <trkpt lat="42.59332" lon="2.06222">
        <ele>1833.993</ele>
        <time>2011-06-05T08:09:26Z</time>
      </trkpt>
      <trkpt lat="42.59328" lon="2.06217">
        <ele>1834.073</ele>
        <time>2011-06-05T08:09:27Z</time>
      </trkpt>
      <trkpt lat="42.59293" lon="2.06183">
        <ele>1833.171</ele>
        <time>2011-06-05T08:09:35Z</time>
      </trkpt>
      <trkpt lat="42.59266" lon="2.06154">
        <ele>1832.237</ele>
        <time>2011-06-05T08:09:41Z</time>
      </trkpt>
      <trkpt lat="42.59258" lon="2.06141">
        <ele>1831.76</ele>
        <time>2011-06-05T08:09:43Z</time>
      </trkpt>
      <trkpt lat="42.59229" lon="2.06109">
        <ele>1829.993</ele>
        <time>2011-06-05T08:09:49Z</time>
      </trkpt>
      <trkpt lat="42.5922" lon="2.06099">
        <ele>1829.539</ele>
        <time>2011-06-05T08:09:51Z</time>
      </trkpt>
      <trkpt lat="42.59208" lon="2.06085">
        <ele>1829.196</ele>
        <time>2011-06-05T08:09:54Z</time>
      </trkpt>
      <trkpt lat="42.59187" lon="2.06065">
        <ele>1829.085</ele>
        <time>2011-06-05T08:10:00Z</time>
      </trkpt>
      <trkpt lat="42.59168" lon="2.06043">
        <ele>1829.432</ele>
        <time>2011-06-05T08:10:06Z</time>
      </trkpt>
      <trkpt lat="42.59161" lon="2.06036">
        <ele>1829.5</ele>
        <time>2011-06-05T08:10:08Z</time>
      </trkpt>
      <trkpt lat="42.5915" lon="2.06029">
        <ele>1829.621</ele>
        <time>2011-06-05T08:10:11Z</time>
      </trkpt>
      <trkpt lat="42.59136" lon="2.06007">
        <ele>1829.509</ele>
        <time>2011-06-05T08:10:16Z</time>
      </trkpt>
      <trkpt lat="42.59134" lon="2.06">
        <ele>1829.308</ele>
        <time>2011-06-05T08:10:17Z</time>
      </trkpt>
      <trkpt lat="42.5913" lon="2.05941">
        <ele>1827.223</ele>
        <time>2011-06-05T08:10:25Z</time>
      </trkpt>
      <trkpt lat="42.5913" lon="2.05894">
        <ele>1825.463</ele>
        <time>2011-06-05T08:10:30Z</time>
      </trkpt>
      <trkpt lat="42.59138" lon="2.05828">
        <ele>1821.838</ele>
        <time>2011-06-05T08:10:36Z</time>
      </trkpt>
      <trkpt lat="42.59148" lon="2.05749">
        <ele>1816.462</ele>
        <time>2011-06-05T08:10:43Z</time>
      </trkpt>
      <trkpt lat="42.59157" lon="2.05686">
        <ele>1812.258</ele>
        <time>2011-06-05T08:10:48Z</time>
      </trkpt>
      <trkpt lat="42.59154" lon="2.05628">
        <ele>1808.693</ele>
        <time>2011-06-05T08:10:53Z</time>
      </trkpt>
      <trkpt lat="42.59138" lon="2.05602">
        <ele>1805.748</ele>
        <time>2011-06-05T08:10:56Z</time>
      </trkpt>
      <trkpt lat="42.59135" lon="2.05581">
        <ele>1804.509</ele>
        <time>2011-06-05T08:10:58Z</time>
      </trkpt>
      <trkpt lat="42.59138" lon="2.05558">
        <ele>1803.058</ele>
        <time>2011-06-05T08:11:00Z</time>
      </trkpt>
      <trkpt lat="42.59151" lon="2.0548">
        <ele>1797.938</ele>
        <time>2011-06-05T08:11:07Z</time>
      </trkpt>
      <trkpt lat="42.59151" lon="2.0542">
        <ele>1792.551</ele>
        <time>2011-06-05T08:11:13Z</time>
      </trkpt>
      <trkpt lat="42.5915" lon="2.05404">
        <ele>1791.075</ele>
        <time>2011-06-05T08:11:15Z</time>
      </trkpt>
      <trkpt lat="42.59146" lon="2.05377">
        <ele>1789.734</ele>
        <time>2011-06-05T08:11:18Z</time>
      </trkpt>
      <trkpt lat="42.59146" lon="2.0532">
        <ele>1786.339</ele>
        <time>2011-06-05T08:11:24Z</time>
      </trkpt>
      <trkpt lat="42.59133" lon="2.05269">
        <ele>1782.704</ele>
        <time>2011-06-05T08:11:29Z</time>
      </trkpt>
      <trkpt lat="42.59108" lon="2.05246">
        <ele>1780.089</ele>
        <time>2011-06-05T08:11:32Z</time>
      </trkpt>
      <trkpt lat="42.59096" lon="2.05235">
        <ele>1777.5</ele>
        <time>2011-06-05T08:11:35Z</time>
      </trkpt>
      <trkpt lat="42.59083" lon="2.05216">
        <ele>1775.888</ele>
        <time>2011-06-05T08:11:38Z</time>
      </trkpt>
      <trkpt lat="42.59059" lon="2.05193">
        <ele>1773.383</ele>
        <time>2011-06-05T08:11:42Z</time>
      </trkpt>
      <trkpt lat="42.59043" lon="2.05187">
        <ele>1772.627</ele>
        <time>2011-06-05T08:11:44Z</time>
      </trkpt>
      <trkpt lat="42.59008" lon="2.05172">
        <ele>1770.449</ele>
        <time>2011-06-05T08:11:49Z</time>
      </trkpt>
      <trkpt lat="42.58983" lon="2.05174">
        <ele>1769.842</ele>
        <time>2011-06-05T08:11:53Z</time>
      </trkpt>
      <trkpt lat="42.58957" lon="2.05177">
        <ele>1768.759</ele>
        <time>2011-06-05T08:11:59Z</time>
      </trkpt>
      <trkpt lat="42.58945" lon="2.05184">
        <ele>1768.573</ele>
        <time>2011-06-05T08:12:03Z</time>
      </trkpt>
      <trkpt lat="42.58918" lon="2.05199">
        <ele>1768.839</ele>
        <time>2011-06-05T08:12:10Z</time>
      </trkpt>
      <trkpt lat="42.58893" lon="2.05212">
        <ele>1768.958</ele>
        <time>2011-06-05T08:12:17Z</time>
      </trkpt>
      <trkpt lat="42.58868" lon="2.05216">
        <ele>1768.005</ele>
        <time>2011-06-05T08:12:24Z</time>
      </trkpt>
      <trkpt lat="42.58845" lon="2.05219">
        <ele>1767.89</ele>
        <time>2011-06-05T08:12:30Z</time>
      </trkpt>
      <trkpt lat="42.58837" lon="2.0523">
        <ele>1767.742</ele>
        <time>2011-06-05T08:12:33Z</time>
      </trkpt>
      <trkpt lat="42.58821" lon="2.05241">
        <ele>1767.499</ele>
        <time>2011-06-05T08:12:37Z</time>
      </trkpt>
      <trkpt lat="42.58802" lon="2.05236">
        <ele>1766.455</ele>
        <time>2011-06-05T08:12:40Z</time>
      </trkpt>
      <trkpt lat="42.58796" lon="2.05234">
        <ele>1765.997</ele>
        <time>2011-06-05T08:12:41Z</time>
      </trkpt>
      <trkpt lat="42.58755" lon="2.05241">
        <ele>1763.661</ele>
        <time>2011-06-05T08:12:47Z</time>
      </trkpt>
      <trkpt lat="42.58746" lon="2.05255">
        <ele>1762.857</ele>
        <time>2011-06-05T08:12:49Z</time>
      </trkpt>
      <trkpt lat="42.58739" lon="2.05272">
        <ele>1762.441</ele>
        <time>2011-06-05T08:12:51Z</time>
      </trkpt>
      <trkpt lat="42.58727" lon="2.05294">
        <ele>1761.619</ele>
        <time>2011-06-05T08:12:54Z</time>
      </trkpt>
      <trkpt lat="42.58702" lon="2.05307">
        <ele>1760.285</ele>
        <time>2011-06-05T08:12:58Z</time>
      </trkpt>
      <trkpt lat="42.58691" lon="2.05305">
        <ele>1760.219</ele>
        <time>2011-06-05T08:13:00Z</time>
      </trkpt>
      <trkpt lat="42.58663" lon="2.05305">
        <ele>1760.239</ele>
        <time>2011-06-05T08:13:05Z</time>
      </trkpt>
      <trkpt lat="42.58642" lon="2.05322">
        <ele>1759.401</ele>
        <time>2011-06-05T08:13:09Z</time>
      </trkpt>
      <trkpt lat="42.5863" lon="2.05346">
        <ele>1757.786</ele>
        <time>2011-06-05T08:13:12Z</time>
      </trkpt>
      <trkpt lat="42.58634" lon="2.0537">
        <ele>1756.424</ele>
        <time>2011-06-05T08:13:14Z</time>
      </trkpt>
      <trkpt lat="42.58637" lon="2.05408">
        <ele>1753.915</ele>
        <time>2011-06-05T08:13:17Z</time>
      </trkpt>
      <trkpt lat="42.58634" lon="2.05421">
        <ele>1753.026</ele>
        <time>2011-06-05T08:13:18Z</time>
      </trkpt>
      <trkpt lat="42.58607" lon="2.05486">
        <ele>1750.464</ele>
        <time>2011-06-05T08:13:24Z</time>
      </trkpt>
      <trkpt lat="42.58584" lon="2.05523">
        <ele>1750.172</ele>
        <time>2011-06-05T08:13:29Z</time>
      </trkpt>
      <trkpt lat="42.58576" lon="2.05537">
        <ele>1749.964</ele>
        <time>2011-06-05T08:13:31Z</time>
      </trkpt>
      <trkpt lat="42.58555" lon="2.05551">
        <ele>1749.406</ele>
        <time>2011-06-05T08:13:35Z</time>
      </trkpt>
      <trkpt lat="42.58536" lon="2.05542">
        <ele>1748.389</ele>
        <time>2011-06-05T08:13:38Z</time>
      </trkpt>
      <trkpt lat="42.58529" lon="2.05539">
        <ele>1747.954</ele>
        <time>2011-06-05T08:13:39Z</time>
      </trkpt>
      <trkpt lat="42.58514" lon="2.05537">
        <ele>1747.233</ele>
        <time>2011-06-05T08:13:41Z</time>
      </trkpt>
      <trkpt lat="42.58491" lon="2.05552">
        <ele>1745.937</ele>
        <time>2011-06-05T08:13:45Z</time>
      </trkpt>
      <trkpt lat="42.58484" lon="2.05579">
        <ele>1745.163</ele>
        <time>2011-06-05T08:13:48Z</time>
      </trkpt>
      <trkpt lat="42.58483" lon="2.05587">
        <ele>1744.927</ele>
        <time>2011-06-05T08:13:49Z</time>
      </trkpt>
      <trkpt lat="42.58479" lon="2.05617">
        <ele>1744.384</ele>
        <time>2011-06-05T08:13:52Z</time>
      </trkpt>
      <trkpt lat="42.58462" lon="2.05687">
        <ele>1741.937</ele>
        <time>2011-06-05T08:13:59Z</time>
      </trkpt>
      <trkpt lat="42.58447" lon="2.0575">
        <ele>1739.872</ele>
        <time>2011-06-05T08:14:05Z</time>
      </trkpt>
      <trkpt lat="42.58443" lon="2.05777">
        <ele>1739.31</ele>
        <time>2011-06-05T08:14:08Z</time>
      </trkpt>
      <trkpt lat="42.58421" lon="2.05841">
        <ele>1738.877</ele>
        <time>2011-06-05T08:14:16Z</time>
      </trkpt>
      <trkpt lat="42.58418" lon="2.05868">
        <ele>1739.56</ele>
        <time>2011-06-05T08:14:20Z</time>
      </trkpt>
      <trkpt lat="42.58416" lon="2.05924">
        <ele>1742.102</ele>
        <time>2011-06-05T08:14:29Z</time>
      </trkpt>
      <trkpt lat="42.58416" lon="2.05951">
        <ele>1743.372</ele>
        <time>2011-06-05T08:14:34Z</time>
      </trkpt>
      <trkpt lat="42.58413" lon="2.0599">
        <ele>1745.454</ele>
        <time>2011-06-05T08:14:42Z</time>
      </trkpt>
      <trkpt lat="42.58413" lon="2.06013">
        <ele>1746.948</ele>
        <time>2011-06-05T08:14:47Z</time>
      </trkpt>
      <trkpt lat="42.58415" lon="2.06033">
        <ele>1748.259</ele>
        <time>2011-06-05T08:14:52Z</time>
      </trkpt>
      <trkpt lat="42.58422" lon="2.0606">
        <ele>1749.258</ele>
        <time>2011-06-05T08:14:57Z</time>
      </trkpt>
      <trkpt lat="42.58426" lon="2.06082">
        <ele>1749.933</ele>
        <time>2011-06-05T08:15:01Z</time>
      </trkpt>
      <trkpt lat="42.58431" lon="2.06128">
        <ele>1750.823</ele>
        <time>2011-06-05T08:15:09Z</time>
      </trkpt>
      <trkpt lat="42.58435" lon="2.06146">
        <ele>1751.21</ele>
        <time>2011-06-05T08:15:12Z</time>
      </trkpt>
      <trkpt lat="42.58443" lon="2.06181">
        <ele>1751.829</ele>
        <time>2011-06-05T08:15:18Z</time>
      </trkpt>
      <trkpt lat="42.58459" lon="2.06215">
        <ele>1751.751</ele>
        <time>2011-06-05T08:15:24Z</time>
      </trkpt>
      <trkpt lat="42.58481" lon="2.06261">
        <ele>1752.004</ele>
        <time>2011-06-05T08:15:32Z</time>
      </trkpt>
      <trkpt lat="42.58484" lon="2.06267">
        <ele>1751.998</ele>
        <time>2011-06-05T08:15:33Z</time>
      </trkpt>
      <trkpt lat="42.58508" lon="2.0631">
        <ele>1752.27</ele>
        <time>2011-06-05T08:15:41Z</time>
      </trkpt>
      <trkpt lat="42.58515" lon="2.06321">
        <ele>1752.523</ele>
        <time>2011-06-05T08:15:43Z</time>
      </trkpt>
      <trkpt lat="42.58528" lon="2.06349">
        <ele>1753.249</ele>
        <time>2011-06-05T08:15:48Z</time>
      </trkpt>
      <trkpt lat="42.58545" lon="2.06402">
        <ele>1754.36</ele>
        <time>2011-06-05T08:15:57Z</time>
      </trkpt>
      <trkpt lat="42.58563" lon="2.06454">
        <ele>1755.082</ele>
        <time>2011-06-05T08:16:06Z</time>
      </trkpt>
      <trkpt lat="42.58574" lon="2.06497">
        <ele>1755.479</ele>
        <time>2011-06-05T08:16:13Z</time>
      </trkpt>
      <trkpt lat="42.58577" lon="2.0651">
        <ele>1755.513</ele>
        <time>2011-06-05T08:16:15Z</time>
      </trkpt>
      <trkpt lat="42.58586" lon="2.06544">
        <ele>1755.372</ele>
        <time>2011-06-05T08:16:20Z</time>
      </trkpt>
      <trkpt lat="42.58602" lon="2.06589">
        <ele>1755.86</ele>
        <time>2011-06-05T08:16:27Z</time>
      </trkpt>
      <trkpt lat="42.58609" lon="2.06608">
        <ele>1755.998</ele>
        <time>2011-06-05T08:16:30Z</time>
      </trkpt>
      <trkpt lat="42.58627" lon="2.06653">
        <ele>1756.809</ele>
        <time>2011-06-05T08:16:38Z</time>
      </trkpt>
      <trkpt lat="42.58641" lon="2.06697">
        <ele>1757.529</ele>
        <time>2011-06-05T08:16:45Z</time>
      </trkpt>
      <trkpt lat="42.58669" lon="2.06742">
        <ele>1757.141</ele>
        <time>2011-06-05T08:16:53Z</time>
      </trkpt>
      <trkpt lat="42.58672" lon="2.06747">
        <ele>1757.165</ele>
        <time>2011-06-05T08:16:54Z</time>
      </trkpt>
      <trkpt lat="42.58678" lon="2.06764">
        <ele>1757.631</ele>
        <time>2011-06-05T08:16:57Z</time>
      </trkpt>
      <trkpt lat="42.58686" lon="2.06788">
        <ele>1758.107</ele>
        <time>2011-06-05T08:17:01Z</time>
      </trkpt>
      <trkpt lat="42.58698" lon="2.06828">
        <ele>1758.764</ele>
        <time>2011-06-05T08:17:08Z</time>
      </trkpt>
      <trkpt lat="42.58707" lon="2.06878">
        <ele>1759.837</ele>
        <time>2011-06-05T08:17:16Z</time>
      </trkpt>
      <trkpt lat="42.5872" lon="2.06915">
        <ele>1761.122</ele>
        <time>2011-06-05T08:17:23Z</time>
      </trkpt>
      <trkpt lat="42.58724" lon="2.06958">
        <ele>1762.624</ele>
        <time>2011-06-05T08:17:31Z</time>
      </trkpt>
      <trkpt lat="42.58725" lon="2.06994">
        <ele>1764.059</ele>
        <time>2011-06-05T08:17:38Z</time>
      </trkpt>
      <trkpt lat="42.58727" lon="2.0703">
        <ele>1764.948</ele>
        <time>2011-06-05T08:17:45Z</time>
      </trkpt>
      <trkpt lat="42.58735" lon="2.07059">
        <ele>1766.562</ele>
        <time>2011-06-05T08:17:51Z</time>
      </trkpt>
      <trkpt lat="42.58747" lon="2.07071">
        <ele>1766.689</ele>
        <time>2011-06-05T08:17:55Z</time>
      </trkpt>
      <trkpt lat="42.5875" lon="2.07074">
        <ele>1766.584</ele>
        <time>2011-06-05T08:17:56Z</time>
      </trkpt>
      <trkpt lat="42.5877" lon="2.07092">
        <ele>1765.667</ele>
        <time>2011-06-05T08:18:02Z</time>
      </trkpt>
      <trkpt lat="42.58781" lon="2.07104">
        <ele>1765.811</ele>
        <time>2011-06-05T08:18:06Z</time>
      </trkpt>
      <trkpt lat="42.58792" lon="2.07124">
        <ele>1766.173</ele>
        <time>2011-06-05T08:18:12Z</time>
      </trkpt>
      <trkpt lat="42.58804" lon="2.07138">
        <ele>1765.829</ele>
        <time>2011-06-05T08:18:16Z</time>
      </trkpt>
      <trkpt lat="42.5882" lon="2.07162">
        <ele>1765.289</ele>
        <time>2011-06-05T08:18:21Z</time>
      </trkpt>
      <trkpt lat="42.58843" lon="2.072">
        <ele>1762.459</ele>
        <time>2011-06-05T08:18:27Z</time>
      </trkpt>
      <trkpt lat="42.58858" lon="2.07224">
        <ele>1761.249</ele>
        <time>2011-06-05T08:18:31Z</time>
      </trkpt>
      <trkpt lat="42.58873" lon="2.07245">
        <ele>1760.28</ele>
        <time>2011-06-05T08:18:36Z</time>
      </trkpt>
      <trkpt lat="42.58881" lon="2.07264">
        <ele>1759.489</ele>
        <time>2011-06-05T08:18:40Z</time>
      </trkpt>
      <trkpt lat="42.58889" lon="2.07294">
        <ele>1758.181</ele>
        <time>2011-06-05T08:18:46Z</time>
      </trkpt>
      <trkpt lat="42.58897" lon="2.07307">
        <ele>1757.349</ele>
        <time>2011-06-05T08:18:49Z</time>
      </trkpt>
      <trkpt lat="42.58916" lon="2.07333">
        <ele>1755.285</ele>
        <time>2011-06-05T08:18:55Z</time>
      </trkpt>
      <trkpt lat="42.58923" lon="2.07351">
        <ele>1755.494</ele>
        <time>2011-06-05T08:19:00Z</time>
      </trkpt>
      <trkpt lat="42.58942" lon="2.07386">
        <ele>1755.342</ele>
        <time>2011-06-05T08:19:06Z</time>
      </trkpt>
      <trkpt lat="42.5895" lon="2.07404">
        <ele>1756.396</ele>
        <time>2011-06-05T08:19:10Z</time>
      </trkpt>
      <trkpt lat="42.58953" lon="2.07407">
        <ele>1756.733</ele>
        <time>2011-06-05T08:19:11Z</time>
      </trkpt>
      <trkpt lat="42.58967" lon="2.07402">
        <ele>1755.676</ele>
        <time>2011-06-05T08:19:16Z</time>
      </trkpt>
      <trkpt lat="42.58982" lon="2.07391">
        <ele>1753.13</ele>
        <time>2011-06-05T08:19:21Z</time>
      </trkpt>
      <trkpt lat="42.58999" lon="2.07381">
        <ele>1749.666</ele>
        <time>2011-06-05T08:19:25Z</time>
      </trkpt>
      <trkpt lat="42.59002" lon="2.07378">
        <ele>1748.101</ele>
        <time>2011-06-05T08:19:28Z</time>
      </trkpt>
      <trkpt lat="42.59005" lon="2.07376">
        <ele>1747.723</ele>
        <time>2011-06-05T08:19:41Z</time>
      </trkpt>
      <trkpt lat="42.59014" lon="2.07368">
        <ele>1746.693</ele>
        <time>2011-06-05T08:19:46Z</time>
      </trkpt>
      <trkpt lat="42.5902" lon="2.07364">
        <ele>1745.301</ele>
        <time>2011-06-05T08:19:48Z</time>
      </trkpt>
      <trkpt lat="42.59037" lon="2.07367">
        <ele>1742.118</ele>
        <time>2011-06-05T08:19:53Z</time>
      </trkpt>
      <trkpt lat="42.59043" lon="2.07369">
        <ele>1740.753</ele>
        <time>2011-06-05T08:19:55Z</time>
      </trkpt>
      <trkpt lat="42.59064" lon="2.07384">
        <ele>1736.308</ele>
        <time>2011-06-05T08:20:02Z</time>
      </trkpt>
      <trkpt lat="42.59071" lon="2.07388">
        <ele>1735.277</ele>
        <time>2011-06-05T08:20:05Z</time>
      </trkpt>
      <trkpt lat="42.59077" lon="2.07387">
        <ele>1734.138</ele>
        <time>2011-06-05T08:20:09Z</time>
      </trkpt>
      <trkpt lat="42.59083" lon="2.07393">
        <ele>1733.246</ele>
        <time>2011-06-05T08:20:13Z</time>
      </trkpt>
      <trkpt lat="42.59092" lon="2.07396">
        <ele>1731.2</ele>
        <time>2011-06-05T08:20:18Z</time>
      </trkpt>
      <trkpt lat="42.59098" lon="2.07412">
        <ele>1728.863</ele>
        <time>2011-06-05T08:20:23Z</time>
      </trkpt>
      <trkpt lat="42.59103" lon="2.07423">
        <ele>1727.7</ele>
        <time>2011-06-05T08:20:26Z</time>
      </trkpt>
      <trkpt lat="42.59114" lon="2.07433">
        <ele>1726.53</ele>
        <time>2011-06-05T08:20:29Z</time>
      </trkpt>
      <trkpt lat="42.59128" lon="2.07448">
        <ele>1724.091</ele>
        <time>2011-06-05T08:20:34Z</time>
      </trkpt>
      <trkpt lat="42.59131" lon="2.0745">
        <ele>1723.527</ele>
        <time>2011-06-05T08:20:35Z</time>
      </trkpt>
      <trkpt lat="42.59142" lon="2.07456">
        <ele>1722.391</ele>
        <time>2011-06-05T08:20:39Z</time>
      </trkpt>
      <trkpt lat="42.59156" lon="2.07463">
        <ele>1720.734</ele>
        <time>2011-06-05T08:20:46Z</time>
      </trkpt>
      <trkpt lat="42.59169" lon="2.07468">
        <ele>1719.49</ele>
        <time>2011-06-05T08:20:50Z</time>
      </trkpt>
      <trkpt lat="42.59192" lon="2.07491">
        <ele>1717.529</ele>
        <time>2011-06-05T08:20:56Z</time>
      </trkpt>
      <trkpt lat="42.59206" lon="2.075">
        <ele>1717.219</ele>
        <time>2011-06-05T08:21:00Z</time>
      </trkpt>
      <trkpt lat="42.59227" lon="2.07517">
        <ele>1716.987</ele>
        <time>2011-06-05T08:21:06Z</time>
      </trkpt>
      <trkpt lat="42.5923" lon="2.07523">
        <ele>1716.569</ele>
        <time>2011-06-05T08:21:09Z</time>
      </trkpt>
      <trkpt lat="42.59237" lon="2.07527">
        <ele>1716.798</ele>
        <time>2011-06-05T08:21:41Z</time>
      </trkpt>
      <trkpt lat="42.59241" lon="2.07529">
        <ele>1716.787</ele>
        <time>2011-06-05T08:21:46Z</time>
      </trkpt>
      <trkpt lat="42.59247" lon="2.07537">
        <ele>1716.77</ele>
        <time>2011-06-05T08:22:03Z</time>
      </trkpt>
      <trkpt lat="42.59258" lon="2.07545">
        <ele>1717.135</ele>
        <time>2011-06-05T08:22:09Z</time>
      </trkpt>
      <trkpt lat="42.59275" lon="2.07554">
        <ele>1716.514</ele>
        <time>2011-06-05T08:22:15Z</time>
      </trkpt>
      <trkpt lat="42.59292" lon="2.07554">
        <ele>1715.751</ele>
        <time>2011-06-05T08:22:20Z</time>
      </trkpt>
      <trkpt lat="42.59306" lon="2.07553">
        <ele>1715.881</ele>
        <time>2011-06-05T08:22:24Z</time>
      </trkpt>
      <trkpt lat="42.59328" lon="2.07556">
        <ele>1715.192</ele>
        <time>2011-06-05T08:22:30Z</time>
      </trkpt>
      <trkpt lat="42.5935" lon="2.07569">
        <ele>1714.144</ele>
        <time>2011-06-05T08:22:36Z</time>
      </trkpt>
      <trkpt lat="42.59356" lon="2.07575">
        <ele>1713.796</ele>
        <time>2011-06-05T08:22:38Z</time>
      </trkpt>
      <trkpt lat="42.59383" lon="2.07586">
        <ele>1712.262</ele>
        <time>2011-06-05T08:22:45Z</time>
      </trkpt>
      <trkpt lat="42.59396" lon="2.07587">
        <ele>1711.266</ele>
        <time>2011-06-05T08:22:49Z</time>
      </trkpt>
      <trkpt lat="42.59409" lon="2.07587">
        <ele>1709.196</ele>
        <time>2011-06-05T08:22:54Z</time>
      </trkpt>
      <trkpt lat="42.59412" lon="2.07587">
        <ele>1708.62</ele>
        <time>2011-06-05T08:22:55Z</time>
      </trkpt>
      <trkpt lat="42.59425" lon="2.07596">
        <ele>1705.486</ele>
        <time>2011-06-05T08:23:00Z</time>
      </trkpt>
      <trkpt lat="42.59441" lon="2.07615">
        <ele>1702.754</ele>
        <time>2011-06-05T08:23:05Z</time>
      </trkpt>
      <trkpt lat="42.59444" lon="2.07616">
        <ele>1702.248</ele>
        <time>2011-06-05T08:23:06Z</time>
      </trkpt>
      <trkpt lat="42.59457" lon="2.07632">
        <ele>1700.328</ele>
        <time>2011-06-05T08:23:13Z</time>
      </trkpt>
      <trkpt lat="42.59467" lon="2.07638">
        <ele>1699.031</ele>
        <time>2011-06-05T08:23:16Z</time>
      </trkpt>
      <trkpt lat="42.59478" lon="2.07632">
        <ele>1696.944</ele>
        <time>2011-06-05T08:23:20Z</time>
      </trkpt>
      <trkpt lat="42.59482" lon="2.07632">
        <ele>1696.198</ele>
        <time>2011-06-05T08:23:22Z</time>
      </trkpt>
      <trkpt lat="42.59493" lon="2.07637">
        <ele>1694.942</ele>
        <time>2011-06-05T08:23:26Z</time>
      </trkpt>
      <trkpt lat="42.59496" lon="2.07639">
        <ele>1694.503</ele>
        <time>2011-06-05T08:23:27Z</time>
      </trkpt>
      <trkpt lat="42.59504" lon="2.07641">
        <ele>1693.082</ele>
        <time>2011-06-05T08:23:30Z</time>
      </trkpt>
      <trkpt lat="42.59516" lon="2.07647">
        <ele>1691.365</ele>
        <time>2011-06-05T08:23:35Z</time>
      </trkpt>
      <trkpt lat="42.5953" lon="2.0765">
        <ele>1688.953</ele>
        <time>2011-06-05T08:23:40Z</time>
      </trkpt>
      <trkpt lat="42.59543" lon="2.07654">
        <ele>1685.996</ele>
        <time>2011-06-05T08:23:45Z</time>
      </trkpt>
      <trkpt lat="42.59559" lon="2.07656">
        <ele>1683.768</ele>
        <time>2011-06-05T08:23:50Z</time>
      </trkpt>
      <trkpt lat="42.5957" lon="2.07663">
        <ele>1682.722</ele>
        <time>2011-06-05T08:23:53Z</time>
      </trkpt>
      <trkpt lat="42.59582" lon="2.07656">
        <ele>1681.705</ele>
        <time>2011-06-05T08:23:57Z</time>
      </trkpt>
      <trkpt lat="42.59587" lon="2.07652">
        <ele>1681</ele>
        <time>2011-06-05T08:24:00Z</time>
      </trkpt>
      <trkpt lat="42.596" lon="2.0765">
        <ele>1679.29</ele>
        <time>2011-06-05T08:24:06Z</time>
      </trkpt>
      <trkpt lat="42.59603" lon="2.0765">
        <ele>1678.917</ele>
        <time>2011-06-05T08:24:07Z</time>
      </trkpt>
      <trkpt lat="42.59611" lon="2.07652">
        <ele>1677.851</ele>
        <time>2011-06-05T08:24:10Z</time>
      </trkpt>
      <trkpt lat="42.59626" lon="2.07651">
        <ele>1674.776</ele>
        <time>2011-06-05T08:24:16Z</time>
      </trkpt>
      <trkpt lat="42.59633" lon="2.07655">
        <ele>1673.445</ele>
        <time>2011-06-05T08:24:18Z</time>
      </trkpt>
      <trkpt lat="42.5965" lon="2.07656">
        <ele>1670.362</ele>
        <time>2011-06-05T08:24:22Z</time>
      </trkpt>
      <trkpt lat="42.59658" lon="2.07659">
        <ele>1669.65</ele>
        <time>2011-06-05T08:24:24Z</time>
      </trkpt>
      <trkpt lat="42.59662" lon="2.07661">
        <ele>1668.965</ele>
        <time>2011-06-05T08:24:25Z</time>
      </trkpt>
      <trkpt lat="42.59674" lon="2.07657">
        <ele>1666.292</ele>
        <time>2011-06-05T08:24:29Z</time>
      </trkpt>
      <trkpt lat="42.59686" lon="2.07657">
        <ele>1663.599</ele>
        <time>2011-06-05T08:24:33Z</time>
      </trkpt>
      <trkpt lat="42.59695" lon="2.07663">
        <ele>1661.802</ele>
        <time>2011-06-05T08:24:37Z</time>
      </trkpt>
      <trkpt lat="42.59699" lon="2.07667">
        <ele>1661.032</ele>
        <time>2011-06-05T08:24:41Z</time>
      </trkpt>
      <trkpt lat="42.59697" lon="2.0768">
        <ele>1661.082</ele>
        <time>2011-06-05T08:24:48Z</time>
      </trkpt>
      <trkpt lat="42.59697" lon="2.07688">
        <ele>1661.164</ele>
        <time>2011-06-05T08:24:50Z</time>
      </trkpt>
      <trkpt lat="42.59703" lon="2.0772">
        <ele>1661.65</ele>
        <time>2011-06-05T08:24:58Z</time>
      </trkpt>
      <trkpt lat="42.59708" lon="2.07741">
        <ele>1661.428</ele>
        <time>2011-06-05T08:25:03Z</time>
      </trkpt>
      <trkpt lat="42.59717" lon="2.07762">
        <ele>1661.653</ele>
        <time>2011-06-05T08:25:08Z</time>
      </trkpt>
      <trkpt lat="42.59727" lon="2.07782">
        <ele>1661.989</ele>
        <time>2011-06-05T08:25:13Z</time>
      </trkpt>
      <trkpt lat="42.59743" lon="2.0781">
        <ele>1662.399</ele>
        <time>2011-06-05T08:25:20Z</time>
      </trkpt>
      <trkpt lat="42.5975" lon="2.07839">
        <ele>1662.969</ele>
        <time>2011-06-05T08:25:26Z</time>
      </trkpt>
      <trkpt lat="42.59752" lon="2.07866">
        <ele>1663.166</ele>
        <time>2011-06-05T08:25:31Z</time>
      </trkpt>
      <trkpt lat="42.59755" lon="2.07895">
        <ele>1663.576</ele>
        <time>2011-06-05T08:25:37Z</time>
      </trkpt>
      <trkpt lat="42.59755" lon="2.07911">
        <ele>1663.762</ele>
        <time>2011-06-05T08:25:40Z</time>
      </trkpt>
      <trkpt lat="42.59761" lon="2.07943">
        <ele>1664.332</ele>
        <time>2011-06-05T08:25:46Z</time>
      </trkpt>
      <trkpt lat="42.59769" lon="2.07973">
        <ele>1665.201</ele>
        <time>2011-06-05T08:25:52Z</time>
      </trkpt>
      <trkpt lat="42.59778" lon="2.08008">
        <ele>1666.327</ele>
        <time>2011-06-05T08:25:59Z</time>
      </trkpt>
      <trkpt lat="42.5978" lon="2.08039">
        <ele>1666.979</ele>
        <time>2011-06-05T08:26:05Z</time>
      </trkpt>
      <trkpt lat="42.5978" lon="2.08051">
        <ele>1667.135</ele>
        <time>2011-06-05T08:26:07Z</time>
      </trkpt>
      <trkpt lat="42.59785" lon="2.08072">
        <ele>1667.352</ele>
        <time>2011-06-05T08:26:11Z</time>
      </trkpt>
      <trkpt lat="42.59797" lon="2.08105">
        <ele>1668.188</ele>
        <time>2011-06-05T08:26:18Z</time>
      </trkpt>
      <trkpt lat="42.59808" lon="2.08132">
        <ele>1668.8</ele>
        <time>2011-06-05T08:26:24Z</time>
      </trkpt>
      <trkpt lat="42.59811" lon="2.08151">
        <ele>1669.52</ele>
        <time>2011-06-05T08:26:28Z</time>
      </trkpt>
      <trkpt lat="42.59798" lon="2.08164">
        <ele>1669.771</ele>
        <time>2011-06-05T08:26:32Z</time>
      </trkpt>
      <trkpt lat="42.59766" lon="2.08169">
        <ele>1670.39</ele>
        <time>2011-06-05T08:26:40Z</time>
      </trkpt>
      <trkpt lat="42.59742" lon="2.08172">
        <ele>1670.71</ele>
        <time>2011-06-05T08:26:46Z</time>
      </trkpt>
      <trkpt lat="42.5972" lon="2.08185">
        <ele>1671.713</ele>
        <time>2011-06-05T08:26:52Z</time>
      </trkpt>
      <trkpt lat="42.59716" lon="2.08203">
        <ele>1672.501</ele>
        <time>2011-06-05T08:26:56Z</time>
      </trkpt>
      <trkpt lat="42.59723" lon="2.08234">
        <ele>1673.392</ele>
        <time>2011-06-05T08:27:02Z</time>
      </trkpt>
      <trkpt lat="42.59729" lon="2.08269">
        <ele>1674.142</ele>
        <time>2011-06-05T08:27:09Z</time>
      </trkpt>
      <trkpt lat="42.59732" lon="2.083">
        <ele>1675.025</ele>
        <time>2011-06-05T08:27:15Z</time>
      </trkpt>
      <trkpt lat="42.59733" lon="2.08332">
        <ele>1675.988</ele>
        <time>2011-06-05T08:27:21Z</time>
      </trkpt>
      <trkpt lat="42.59742" lon="2.08358">
        <ele>1676.838</ele>
        <time>2011-06-05T08:27:27Z</time>
      </trkpt>
      <trkpt lat="42.59744" lon="2.08362">
        <ele>1676.992</ele>
        <time>2011-06-05T08:27:28Z</time>
      </trkpt>
      <trkpt lat="42.59745" lon="2.0838">
        <ele>1677.53</ele>
        <time>2011-06-05T08:27:32Z</time>
      </trkpt>
      <trkpt lat="42.59744" lon="2.08394">
        <ele>1677.723</ele>
        <time>2011-06-05T08:27:35Z</time>
      </trkpt>
      <trkpt lat="42.59748" lon="2.08414">
        <ele>1677.754</ele>
        <time>2011-06-05T08:27:39Z</time>
      </trkpt>
      <trkpt lat="42.59755" lon="2.08427">
        <ele>1678.066</ele>
        <time>2011-06-05T08:27:42Z</time>
      </trkpt>
      <trkpt lat="42.59771" lon="2.0845">
        <ele>1678.565</ele>
        <time>2011-06-05T08:27:48Z</time>
      </trkpt>
      <trkpt lat="42.59785" lon="2.08473">
        <ele>1679.19</ele>
        <time>2011-06-05T08:27:54Z</time>
      </trkpt>
      <trkpt lat="42.59788" lon="2.08483">
        <ele>1679.617</ele>
        <time>2011-06-05T08:27:59Z</time>
      </trkpt>
      <trkpt lat="42.59788" lon="2.08483">
        <ele>1679.668</ele>
        <time>2011-06-05T08:28:03Z</time>
      </trkpt>
      <trkpt lat="42.59796" lon="2.08493">
        <ele>1679.78</ele>
        <time>2011-06-05T08:28:09Z</time>
      </trkpt>
      <trkpt lat="42.59811" lon="2.08518">
        <ele>1680.854</ele>
        <time>2011-06-05T08:28:17Z</time>
      </trkpt>
      <trkpt lat="42.59823" lon="2.0854">
        <ele>1681.601</ele>
        <time>2011-06-05T08:28:23Z</time>
      </trkpt>
      <trkpt lat="42.59834" lon="2.0856">
        <ele>1682.135</ele>
        <time>2011-06-05T08:28:29Z</time>
      </trkpt>
      <trkpt lat="42.59842" lon="2.08577">
        <ele>1682.686</ele>
        <time>2011-06-05T08:28:34Z</time>
      </trkpt>
      <trkpt lat="42.59853" lon="2.086">
        <ele>1683.186</ele>
        <time>2011-06-05T08:28:40Z</time>
      </trkpt>
      <trkpt lat="42.59864" lon="2.08624">
        <ele>1684.171</ele>
        <time>2011-06-05T08:28:46Z</time>
      </trkpt>
      <trkpt lat="42.59878" lon="2.08651">
        <ele>1684.813</ele>
        <time>2011-06-05T08:28:53Z</time>
      </trkpt>
      <trkpt lat="42.5989" lon="2.08679">
        <ele>1686.077</ele>
        <time>2011-06-05T08:29:00Z</time>
      </trkpt>
      <trkpt lat="42.59894" lon="2.08703">
        <ele>1686.06</ele>
        <time>2011-06-05T08:29:05Z</time>
      </trkpt>
      <trkpt lat="42.599" lon="2.08726">
        <ele>1686.503</ele>
        <time>2011-06-05T08:29:10Z</time>
      </trkpt>
      <trkpt lat="42.59914" lon="2.08751">
        <ele>1687.557</ele>
        <time>2011-06-05T08:29:17Z</time>
      </trkpt>
      <trkpt lat="42.59927" lon="2.08775">
        <ele>1688.413</ele>
        <time>2011-06-05T08:29:24Z</time>
      </trkpt>
      <trkpt lat="42.5994" lon="2.08794">
        <ele>1689.157</ele>
        <time>2011-06-05T08:29:30Z</time>
      </trkpt>
      <trkpt lat="42.59954" lon="2.08824">
        <ele>1690.377</ele>
        <time>2011-06-05T08:29:37Z</time>
      </trkpt>
      <trkpt lat="42.59966" lon="2.08851">
        <ele>1690.617</ele>
        <time>2011-06-05T08:29:43Z</time>
      </trkpt>
      <trkpt lat="42.59976" lon="2.08873">
        <ele>1691.129</ele>
        <time>2011-06-05T08:29:48Z</time>
      </trkpt>
      <trkpt lat="42.59986" lon="2.089">
        <ele>1691.854</ele>
        <time>2011-06-05T08:29:54Z</time>
      </trkpt>
      <trkpt lat="42.59992" lon="2.08918">
        <ele>1692.278</ele>
        <time>2011-06-05T08:29:58Z</time>
      </trkpt>
      <trkpt lat="42.59992" lon="2.08928">
        <ele>1692.466</ele>
        <time>2011-06-05T08:30:00Z</time>
      </trkpt>
      <trkpt lat="42.60002" lon="2.08953">
        <ele>1692.466</ele>
        <time>2011-06-05T08:30:05Z</time>
      </trkpt>
      <trkpt lat="42.60003" lon="2.08958">
        <ele>1692.437</ele>
        <time>2011-06-05T08:30:06Z</time>
      </trkpt>
      <trkpt lat="42.60015" lon="2.08994">
        <ele>1692.639</ele>
        <time>2011-06-05T08:30:13Z</time>
      </trkpt>
      <trkpt lat="42.60037" lon="2.09036">
        <ele>1692.764</ele>
        <time>2011-06-05T08:30:22Z</time>
      </trkpt>
      <trkpt lat="42.60055" lon="2.09063">
        <ele>1692.456</ele>
        <time>2011-06-05T08:30:28Z</time>
      </trkpt>
      <trkpt lat="42.60076" lon="2.09075">
        <ele>1692.391</ele>
        <time>2011-06-05T08:30:33Z</time>
      </trkpt>
      <trkpt lat="42.60081" lon="2.09077">
        <ele>1692.449</ele>
        <time>2011-06-05T08:30:34Z</time>
      </trkpt>
      <trkpt lat="42.60094" lon="2.091">
        <ele>1692.189</ele>
        <time>2011-06-05T08:30:39Z</time>
      </trkpt>
      <trkpt lat="42.60088" lon="2.09119">
        <ele>1691.878</ele>
        <time>2011-06-05T08:30:43Z</time>
      </trkpt>
      <trkpt lat="42.60078" lon="2.09124">
        <ele>1691.817</ele>
        <time>2011-06-05T08:30:45Z</time>
      </trkpt>
      <trkpt lat="42.60054" lon="2.09117">
        <ele>1690.827</ele>
        <time>2011-06-05T08:30:50Z</time>
      </trkpt>
      <trkpt lat="42.60033" lon="2.09111">
        <ele>1690.467</ele>
        <time>2011-06-05T08:30:54Z</time>
      </trkpt>
      <trkpt lat="42.60014" lon="2.09098">
        <ele>1689.872</ele>
        <time>2011-06-05T08:30:58Z</time>
      </trkpt>
      <trkpt lat="42.59999" lon="2.0909">
        <ele>1689.175</ele>
        <time>2011-06-05T08:31:01Z</time>
      </trkpt>
      <trkpt lat="42.59953" lon="2.09074">
        <ele>1687.838</ele>
        <time>2011-06-05T08:31:09Z</time>
      </trkpt>
      <trkpt lat="42.59947" lon="2.09072">
        <ele>1687.726</ele>
        <time>2011-06-05T08:31:10Z</time>
      </trkpt>
      <trkpt lat="42.5993" lon="2.09064">
        <ele>1687.295</ele>
        <time>2011-06-05T08:31:13Z</time>
      </trkpt>
      <trkpt lat="42.59908" lon="2.09058">
        <ele>1686.959</ele>
        <time>2011-06-05T08:31:17Z</time>
      </trkpt>
      <trkpt lat="42.59892" lon="2.09054">
        <ele>1687.151</ele>
        <time>2011-06-05T08:31:20Z</time>
      </trkpt>
      <trkpt lat="42.59867" lon="2.09045">
        <ele>1686.982</ele>
        <time>2011-06-05T08:31:25Z</time>
      </trkpt>
      <trkpt lat="42.5984" lon="2.09033">
        <ele>1687.3</ele>
        <time>2011-06-05T08:31:31Z</time>
      </trkpt>
      <trkpt lat="42.59822" lon="2.09028">
        <ele>1687.226</ele>
        <time>2011-06-05T08:31:35Z</time>
      </trkpt>
      <trkpt lat="42.598" lon="2.09019">
        <ele>1687.364</ele>
        <time>2011-06-05T08:31:40Z</time>
      </trkpt>
      <trkpt lat="42.59787" lon="2.09011">
        <ele>1687.276</ele>
        <time>2011-06-05T08:31:43Z</time>
      </trkpt>
      <trkpt lat="42.59756" lon="2.08999">
        <ele>1687.482</ele>
        <time>2011-06-05T08:31:50Z</time>
      </trkpt>
      <trkpt lat="42.59726" lon="2.08994">
        <ele>1687.516</ele>
        <time>2011-06-05T08:31:56Z</time>
      </trkpt>
      <trkpt lat="42.59711" lon="2.08988">
        <ele>1687.402</ele>
        <time>2011-06-05T08:31:59Z</time>
      </trkpt>
      <trkpt lat="42.59697" lon="2.08983">
        <ele>1687.355</ele>
        <time>2011-06-05T08:32:02Z</time>
      </trkpt>
      <trkpt lat="42.59687" lon="2.0898">
        <ele>1687.216</ele>
        <time>2011-06-05T08:32:04Z</time>
      </trkpt>
      <trkpt lat="42.59673" lon="2.08978">
        <ele>1687.293</ele>
        <time>2011-06-05T08:32:07Z</time>
      </trkpt>
      <trkpt lat="42.5965" lon="2.08963">
        <ele>1687.597</ele>
        <time>2011-06-05T08:32:13Z</time>
      </trkpt>
      <trkpt lat="42.59647" lon="2.08959">
        <ele>1687.562</ele>
        <time>2011-06-05T08:32:14Z</time>
      </trkpt>
      <trkpt lat="42.5963" lon="2.08936">
        <ele>1687.398</ele>
        <time>2011-06-05T08:32:19Z</time>
      </trkpt>
      <trkpt lat="42.59626" lon="2.08932">
        <ele>1687.384</ele>
        <time>2011-06-05T08:32:20Z</time>
      </trkpt>
      <trkpt lat="42.59599" lon="2.08918">
        <ele>1686.852</ele>
        <time>2011-06-05T08:32:27Z</time>
      </trkpt>
      <trkpt lat="42.59596" lon="2.08929">
        <ele>1686.037</ele>
        <time>2011-06-05T08:32:30Z</time>
      </trkpt>
      <trkpt lat="42.59599" lon="2.08937">
        <ele>1685.003</ele>
        <time>2011-06-05T08:32:32Z</time>
      </trkpt>
      <trkpt lat="42.59612" lon="2.08975">
        <ele>1680.683</ele>
        <time>2011-06-05T08:32:38Z</time>
      </trkpt>
      <trkpt lat="42.59625" lon="2.09004">
        <ele>1678.293</ele>
        <time>2011-06-05T08:32:41Z</time>
      </trkpt>
      <trkpt lat="42.59645" lon="2.09017">
        <ele>1676.182</ele>
        <time>2011-06-05T08:32:45Z</time>
      </trkpt>
      <trkpt lat="42.59671" lon="2.09032">
        <ele>1673.7</ele>
        <time>2011-06-05T08:32:50Z</time>
      </trkpt>
      <trkpt lat="42.59704" lon="2.09067">
        <ele>1671.623</ele>
        <time>2011-06-05T08:32:56Z</time>
      </trkpt>
      <trkpt lat="42.59715" lon="2.09077">
        <ele>1670.827</ele>
        <time>2011-06-05T08:32:58Z</time>
      </trkpt>
      <trkpt lat="42.59735" lon="2.0911">
        <ele>1668.634</ele>
        <time>2011-06-05T08:33:03Z</time>
      </trkpt>
      <trkpt lat="42.59758" lon="2.09127">
        <ele>1666.179</ele>
        <time>2011-06-05T08:33:08Z</time>
      </trkpt>
      <trkpt lat="42.59768" lon="2.09131">
        <ele>1665.082</ele>
        <time>2011-06-05T08:33:10Z</time>
      </trkpt>
      <trkpt lat="42.59787" lon="2.09147">
        <ele>1662.162</ele>
        <time>2011-06-05T08:33:14Z</time>
      </trkpt>
      <trkpt lat="42.59794" lon="2.09162">
        <ele>1661.309</ele>
        <time>2011-06-05T08:33:16Z</time>
      </trkpt>
      <trkpt lat="42.59796" lon="2.0917">
        <ele>1660.406</ele>
        <time>2011-06-05T08:33:17Z</time>
      </trkpt>
      <trkpt lat="42.59801" lon="2.09189">
        <ele>1658.791</ele>
        <time>2011-06-05T08:33:19Z</time>
      </trkpt>
      <trkpt lat="42.59805" lon="2.09219">
        <ele>1656.662</ele>
        <time>2011-06-05T08:33:23Z</time>
      </trkpt>
      <trkpt lat="42.59809" lon="2.09233">
        <ele>1655.86</ele>
        <time>2011-06-05T08:33:25Z</time>
      </trkpt>
      <trkpt lat="42.59815" lon="2.09242">
        <ele>1655.467</ele>
        <time>2011-06-05T08:33:27Z</time>
      </trkpt>
      <trkpt lat="42.59831" lon="2.0927">
        <ele>1654.163</ele>
        <time>2011-06-05T08:33:33Z</time>
      </trkpt>
      <trkpt lat="42.59837" lon="2.09278">
        <ele>1653.596</ele>
        <time>2011-06-05T08:33:35Z</time>
      </trkpt>
      <trkpt lat="42.5986" lon="2.09297">
        <ele>1652.225</ele>
        <time>2011-06-05T08:33:41Z</time>
      </trkpt>
      <trkpt lat="42.59872" lon="2.09315">
        <ele>1651.683</ele>
        <time>2011-06-05T08:33:45Z</time>
      </trkpt>
      <trkpt lat="42.59876" lon="2.09326">
        <ele>1651.025</ele>
        <time>2011-06-05T08:33:47Z</time>
      </trkpt>
      <trkpt lat="42.59859" lon="2.09324">
        <ele>1649.265</ele>
        <time>2011-06-05T08:33:51Z</time>
      </trkpt>
      <trkpt lat="42.59834" lon="2.09311">
        <ele>1647.674</ele>
        <time>2011-06-05T08:33:57Z</time>
      </trkpt>
      <trkpt lat="42.59827" lon="2.09308">
        <ele>1647.131</ele>
        <time>2011-06-05T08:33:59Z</time>
      </trkpt>
      <trkpt lat="42.59808" lon="2.09308">
        <ele>1645.512</ele>
        <time>2011-06-05T08:34:02Z</time>
      </trkpt>
      <trkpt lat="42.5977" lon="2.09307">
        <ele>1642.621</ele>
        <time>2011-06-05T08:34:07Z</time>
      </trkpt>
      <trkpt lat="42.59763" lon="2.09309">
        <ele>1642.097</ele>
        <time>2011-06-05T08:34:08Z</time>
      </trkpt>
      <trkpt lat="42.59749" lon="2.09328">
        <ele>1639.07</ele>
        <time>2011-06-05T08:34:12Z</time>
      </trkpt>
      <trkpt lat="42.59753" lon="2.09345">
        <ele>1637.186</ele>
        <time>2011-06-05T08:34:14Z</time>
      </trkpt>
      <trkpt lat="42.59764" lon="2.09384">
        <ele>1632.276</ele>
        <time>2011-06-05T08:34:19Z</time>
      </trkpt>
      <trkpt lat="42.59774" lon="2.09404">
        <ele>1630.273</ele>
        <time>2011-06-05T08:34:22Z</time>
      </trkpt>
      <trkpt lat="42.59776" lon="2.09429">
        <ele>1627.426</ele>
        <time>2011-06-05T08:34:26Z</time>
      </trkpt>
      <trkpt lat="42.59765" lon="2.09436">
        <ele>1626.047</ele>
        <time>2011-06-05T08:34:28Z</time>
      </trkpt>
      <trkpt lat="42.59745" lon="2.09448">
        <ele>1623.991</ele>
        <time>2011-06-05T08:34:31Z</time>
      </trkpt>
      <trkpt lat="42.59731" lon="2.09452">
        <ele>1623.402</ele>
        <time>2011-06-05T08:34:33Z</time>
      </trkpt>
      <trkpt lat="42.5971" lon="2.09461">
        <ele>1622.039</ele>
        <time>2011-06-05T08:34:36Z</time>
      </trkpt>
      <trkpt lat="42.59665" lon="2.0949">
        <ele>1617.047</ele>
        <time>2011-06-05T08:34:42Z</time>
      </trkpt>
      <trkpt lat="42.59626" lon="2.09518">
        <ele>1611.263</ele>
        <time>2011-06-05T08:34:47Z</time>
      </trkpt>
      <trkpt lat="42.59611" lon="2.09529">
        <ele>1608.681</ele>
        <time>2011-06-05T08:34:49Z</time>
      </trkpt>
      <trkpt lat="42.59566" lon="2.09554">
        <ele>1603.826</ele>
        <time>2011-06-05T08:34:54Z</time>
      </trkpt>
      <trkpt lat="42.59559" lon="2.09563">
        <ele>1602.93</ele>
        <time>2011-06-05T08:34:55Z</time>
      </trkpt>
      <trkpt lat="42.59544" lon="2.09576">
        <ele>1602.244</ele>
        <time>2011-06-05T08:34:57Z</time>
      </trkpt>
      <trkpt lat="42.59523" lon="2.09602">
        <ele>1601.242</ele>
        <time>2011-06-05T08:35:00Z</time>
      </trkpt>
      <trkpt lat="42.59507" lon="2.09624">
        <ele>1599.69</ele>
        <time>2011-06-05T08:35:03Z</time>
      </trkpt>
      <trkpt lat="42.59502" lon="2.0965">
        <ele>1597.15</ele>
        <time>2011-06-05T08:35:06Z</time>
      </trkpt>
      <trkpt lat="42.59476" lon="2.09687">
        <ele>1592.502</ele>
        <time>2011-06-05T08:35:11Z</time>
      </trkpt>
      <trkpt lat="42.59447" lon="2.09719">
        <ele>1589.396</ele>
        <time>2011-06-05T08:35:16Z</time>
      </trkpt>
      <trkpt lat="42.59445" lon="2.09733">
        <ele>1587.725</ele>
        <time>2011-06-05T08:35:18Z</time>
      </trkpt>
      <trkpt lat="42.59453" lon="2.09749">
        <ele>1585.381</ele>
        <time>2011-06-05T08:35:21Z</time>
      </trkpt>
      <trkpt lat="42.59455" lon="2.09754">
        <ele>1585.382</ele>
        <time>2011-06-05T08:35:22Z</time>
      </trkpt>
      <trkpt lat="42.59453" lon="2.09775">
        <ele>1583.224</ele>
        <time>2011-06-05T08:35:26Z</time>
      </trkpt>
      <trkpt lat="42.5945" lon="2.09777">
        <ele>1582.927</ele>
        <time>2011-06-05T08:35:27Z</time>
      </trkpt>
      <trkpt lat="42.59447" lon="2.09777">
        <ele>1582.577</ele>
        <time>2011-06-05T08:35:28Z</time>
      </trkpt>
      <trkpt lat="42.59437" lon="2.09775">
        <ele>1582.244</ele>
        <time>2011-06-05T08:35:35Z</time>
      </trkpt>
      <trkpt lat="42.5944" lon="2.09778">
        <ele>1582.384</ele>
        <time>2011-06-05T08:35:38Z</time>
      </trkpt>
      <trkpt lat="42.59455" lon="2.09798">
        <ele>1581.983</ele>
        <time>2011-06-05T08:35:44Z</time>
      </trkpt>
      <trkpt lat="42.59469" lon="2.09819">
        <ele>1581.421</ele>
        <time>2011-06-05T08:35:48Z</time>
      </trkpt>
      <trkpt lat="42.59489" lon="2.09856">
        <ele>1579.292</ele>
        <time>2011-06-05T08:35:54Z</time>
      </trkpt>
      <trkpt lat="42.595" lon="2.0987">
        <ele>1578.086</ele>
        <time>2011-06-05T08:35:57Z</time>
      </trkpt>
      <trkpt lat="42.59524" lon="2.09891">
        <ele>1576.123</ele>
        <time>2011-06-05T08:36:01Z</time>
      </trkpt>
      <trkpt lat="42.59534" lon="2.099">
        <ele>1575.23</ele>
        <time>2011-06-05T08:36:03Z</time>
      </trkpt>
      <trkpt lat="42.59549" lon="2.09918">
        <ele>1574.264</ele>
        <time>2011-06-05T08:36:06Z</time>
      </trkpt>
      <trkpt lat="42.59568" lon="2.09958">
        <ele>1572.778</ele>
        <time>2011-06-05T08:36:12Z</time>
      </trkpt>
      <trkpt lat="42.59573" lon="2.09973">
        <ele>1572.476</ele>
        <time>2011-06-05T08:36:14Z</time>
      </trkpt>
      <trkpt lat="42.59582" lon="2.10004">
        <ele>1571.445</ele>
        <time>2011-06-05T08:36:18Z</time>
      </trkpt>
      <trkpt lat="42.59589" lon="2.10016">
        <ele>1570.873</ele>
        <time>2011-06-05T08:36:20Z</time>
      </trkpt>
      <trkpt lat="42.596" lon="2.1005">
        <ele>1569.181</ele>
        <time>2011-06-05T08:36:25Z</time>
      </trkpt>
      <trkpt lat="42.5961" lon="2.10072">
        <ele>1568.307</ele>
        <time>2011-06-05T08:36:28Z</time>
      </trkpt>
      <trkpt lat="42.59614" lon="2.10087">
        <ele>1567.704</ele>
        <time>2011-06-05T08:36:30Z</time>
      </trkpt>
      <trkpt lat="42.59626" lon="2.10118">
        <ele>1566.448</ele>
        <time>2011-06-05T08:36:35Z</time>
      </trkpt>
      <trkpt lat="42.59634" lon="2.10145">
        <ele>1566.026</ele>
        <time>2011-06-05T08:36:39Z</time>
      </trkpt>
      <trkpt lat="42.59639" lon="2.10158">
        <ele>1565.691</ele>
        <time>2011-06-05T08:36:41Z</time>
      </trkpt>
      <trkpt lat="42.59666" lon="2.10205">
        <ele>1564.251</ele>
        <time>2011-06-05T08:36:48Z</time>
      </trkpt>
      <trkpt lat="42.59676" lon="2.10225">
        <ele>1563.774</ele>
        <time>2011-06-05T08:36:51Z</time>
      </trkpt>
      <trkpt lat="42.5969" lon="2.10257">
        <ele>1562.744</ele>
        <time>2011-06-05T08:36:56Z</time>
      </trkpt>
      <trkpt lat="42.59698" lon="2.10283">
        <ele>1561.753</ele>
        <time>2011-06-05T08:37:00Z</time>
      </trkpt>
      <trkpt lat="42.5971" lon="2.10303">
        <ele>1561.062</ele>
        <time>2011-06-05T08:37:04Z</time>
      </trkpt>
      <trkpt lat="42.59723" lon="2.10303">
        <ele>1560.591</ele>
        <time>2011-06-05T08:37:08Z</time>
      </trkpt>
      <trkpt lat="42.59726" lon="2.10304">
        <ele>1560.682</ele>
        <time>2011-06-05T08:37:09Z</time>
      </trkpt>
      <trkpt lat="42.59746" lon="2.10301">
        <ele>1560.234</ele>
        <time>2011-06-05T08:37:15Z</time>
      </trkpt>
      <trkpt lat="42.59774" lon="2.10293">
        <ele>1560.749</ele>
        <time>2011-06-05T08:37:21Z</time>
      </trkpt>
      <trkpt lat="42.59782" lon="2.10291">
        <ele>1561.046</ele>
        <time>2011-06-05T08:37:23Z</time>
      </trkpt>
      <trkpt lat="42.59792" lon="2.10288">
        <ele>1561.048</ele>
        <time>2011-06-05T08:37:25Z</time>
      </trkpt>
      <trkpt lat="42.59809" lon="2.10281">
        <ele>1561.311</ele>
        <time>2011-06-05T08:37:29Z</time>
      </trkpt>
      <trkpt lat="42.59836" lon="2.10271">
        <ele>1561.229</ele>
        <time>2011-06-05T08:37:35Z</time>
      </trkpt>
      <trkpt lat="42.5984" lon="2.10269">
        <ele>1561.313</ele>
        <time>2011-06-05T08:37:36Z</time>
      </trkpt>
      <trkpt lat="42.5986" lon="2.10268">
        <ele>1561.861</ele>
        <time>2011-06-05T08:37:42Z</time>
      </trkpt>
      <trkpt lat="42.59881" lon="2.1027">
        <ele>1561.811</ele>
        <time>2011-06-05T08:37:47Z</time>
      </trkpt>
      <trkpt lat="42.59893" lon="2.10265">
        <ele>1561.969</ele>
        <time>2011-06-05T08:37:50Z</time>
      </trkpt>
      <trkpt lat="42.59911" lon="2.10261">
        <ele>1561.953</ele>
        <time>2011-06-05T08:37:54Z</time>
      </trkpt>
      <trkpt lat="42.5993" lon="2.10266">
        <ele>1561.902</ele>
        <time>2011-06-05T08:37:58Z</time>
      </trkpt>
      <trkpt lat="42.59959" lon="2.1028">
        <ele>1561.644</ele>
        <time>2011-06-05T08:38:04Z</time>
      </trkpt>
      <trkpt lat="42.59991" lon="2.10295">
        <ele>1560.784</ele>
        <time>2011-06-05T08:38:10Z</time>
      </trkpt>
      <trkpt lat="42.59997" lon="2.10297">
        <ele>1560.69</ele>
        <time>2011-06-05T08:38:11Z</time>
      </trkpt>
      <trkpt lat="42.60012" lon="2.10302">
        <ele>1560.456</ele>
        <time>2011-06-05T08:38:14Z</time>
      </trkpt>
      <trkpt lat="42.6005" lon="2.10317">
        <ele>1559.934</ele>
        <time>2011-06-05T08:38:22Z</time>
      </trkpt>
      <trkpt lat="42.60076" lon="2.10327">
        <ele>1559.473</ele>
        <time>2011-06-05T08:38:28Z</time>
      </trkpt>
      <trkpt lat="42.60106" lon="2.10338">
        <ele>1558.743</ele>
        <time>2011-06-05T08:38:35Z</time>
      </trkpt>
      <trkpt lat="42.60134" lon="2.10347">
        <ele>1558.617</ele>
        <time>2011-06-05T08:38:41Z</time>
      </trkpt>
      <trkpt lat="42.60151" lon="2.10353">
        <ele>1558.696</ele>
        <time>2011-06-05T08:38:45Z</time>
      </trkpt>
      <trkpt lat="42.6018" lon="2.1036">
        <ele>1557.889</ele>
        <time>2011-06-05T08:38:52Z</time>
      </trkpt>
      <trkpt lat="42.6019" lon="2.10365">
        <ele>1557.414</ele>
        <time>2011-06-05T08:38:56Z</time>
      </trkpt>
      <trkpt lat="42.60199" lon="2.10368">
        <ele>1557.178</ele>
        <time>2011-06-05T08:38:58Z</time>
      </trkpt>
      <trkpt lat="42.6023" lon="2.10384">
        <ele>1556.396</ele>
        <time>2011-06-05T08:39:05Z</time>
      </trkpt>
      <trkpt lat="42.60235" lon="2.10386">
        <ele>1556.337</ele>
        <time>2011-06-05T08:39:06Z</time>
      </trkpt>
      <trkpt lat="42.6025" lon="2.10388">
        <ele>1555.933</ele>
        <time>2011-06-05T08:39:09Z</time>
      </trkpt>
      <trkpt lat="42.60298" lon="2.1039">
        <ele>1554.491</ele>
        <time>2011-06-05T08:39:18Z</time>
      </trkpt>
      <trkpt lat="42.60322" lon="2.10399">
        <ele>1553.431</ele>
        <time>2011-06-05T08:39:23Z</time>
      </trkpt>
      <trkpt lat="42.60332" lon="2.10399">
        <ele>1552.84</ele>
        <time>2011-06-05T08:39:25Z</time>
      </trkpt>
      <trkpt lat="42.60343" lon="2.10401">
        <ele>1552.063</ele>
        <time>2011-06-05T08:39:27Z</time>
      </trkpt>
      <trkpt lat="42.60362" lon="2.104">
        <ele>1550.683</ele>
        <time>2011-06-05T08:39:30Z</time>
      </trkpt>
      <trkpt lat="42.60378" lon="2.10389">
        <ele>1549.68</ele>
        <time>2011-06-05T08:39:33Z</time>
      </trkpt>
      <trkpt lat="42.604" lon="2.10382">
        <ele>1548.554</ele>
        <time>2011-06-05T08:39:37Z</time>
      </trkpt>
      <trkpt lat="42.60445" lon="2.1038">
        <ele>1547.131</ele>
        <time>2011-06-05T08:39:44Z</time>
      </trkpt>
      <trkpt lat="42.60455" lon="2.10382">
        <ele>1546.602</ele>
        <time>2011-06-05T08:39:46Z</time>
      </trkpt>
      <trkpt lat="42.60483" lon="2.10391">
        <ele>1545.567</ele>
        <time>2011-06-05T08:39:53Z</time>
      </trkpt>
      <trkpt lat="42.60501" lon="2.104">
        <ele>1544.852</ele>
        <time>2011-06-05T08:39:58Z</time>
      </trkpt>
      <trkpt lat="42.60524" lon="2.10409">
        <ele>1543.95</ele>
        <time>2011-06-05T08:40:03Z</time>
      </trkpt>
      <trkpt lat="42.60555" lon="2.10416">
        <ele>1543.306</ele>
        <time>2011-06-05T08:40:10Z</time>
      </trkpt>
      <trkpt lat="42.60577" lon="2.10406">
        <ele>1542.852</ele>
        <time>2011-06-05T08:40:15Z</time>
      </trkpt>
      <trkpt lat="42.60597" lon="2.10387">
        <ele>1542.49</ele>
        <time>2011-06-05T08:40:20Z</time>
      </trkpt>
      <trkpt lat="42.60633" lon="2.1036">
        <ele>1542.368</ele>
        <time>2011-06-05T08:40:29Z</time>
      </trkpt>
      <trkpt lat="42.60654" lon="2.10347">
        <ele>1542.515</ele>
        <time>2011-06-05T08:40:35Z</time>
      </trkpt>
      <trkpt lat="42.60672" lon="2.10341">
        <ele>1542.359</ele>
        <time>2011-06-05T08:40:40Z</time>
      </trkpt>
      <trkpt lat="42.6069" lon="2.10336">
        <ele>1542.588</ele>
        <time>2011-06-05T08:40:46Z</time>
      </trkpt>
      <trkpt lat="42.60703" lon="2.10333">
        <ele>1542.743</ele>
        <time>2011-06-05T08:40:51Z</time>
      </trkpt>
      <trkpt lat="42.60719" lon="2.1033">
        <ele>1543.257</ele>
        <time>2011-06-05T08:40:57Z</time>
      </trkpt>
      <trkpt lat="42.60736" lon="2.10334">
        <ele>1543.641</ele>
        <time>2011-06-05T08:41:01Z</time>
      </trkpt>
      <trkpt lat="42.60771" lon="2.10343">
        <ele>1542.913</ele>
        <time>2011-06-05T08:41:07Z</time>
      </trkpt>
      <trkpt lat="42.60806" lon="2.10354">
        <ele>1541.897</ele>
        <time>2011-06-05T08:41:13Z</time>
      </trkpt>
      <trkpt lat="42.60856" lon="2.10368">
        <ele>1540.502</ele>
        <time>2011-06-05T08:41:21Z</time>
      </trkpt>
      <trkpt lat="42.60893" lon="2.10372">
        <ele>1539.741</ele>
        <time>2011-06-05T08:41:27Z</time>
      </trkpt>
      <trkpt lat="42.60899" lon="2.10372">
        <ele>1539.585</ele>
        <time>2011-06-05T08:41:28Z</time>
      </trkpt>
      <trkpt lat="42.60956" lon="2.1036">
        <ele>1538.466</ele>
        <time>2011-06-05T08:41:37Z</time>
      </trkpt>
      <trkpt lat="42.61012" lon="2.10349">
        <ele>1537.273</ele>
        <time>2011-06-05T08:41:46Z</time>
      </trkpt>
      <trkpt lat="42.61079" lon="2.10333">
        <ele>1536.584</ele>
        <time>2011-06-05T08:41:57Z</time>
      </trkpt>
      <trkpt lat="42.61111" lon="2.10325">
        <ele>1535.866</ele>
        <time>2011-06-05T08:42:02Z</time>
      </trkpt>
      <trkpt lat="42.6115" lon="2.10299">
        <ele>1535.733</ele>
        <time>2011-06-05T08:42:09Z</time>
      </trkpt>
      <trkpt lat="42.61188" lon="2.10266">
        <ele>1534.578</ele>
        <time>2011-06-05T08:42:16Z</time>
      </trkpt>
      <trkpt lat="42.61194" lon="2.10261">
        <ele>1534.286</ele>
        <time>2011-06-05T08:42:17Z</time>
      </trkpt>
      <trkpt lat="42.6122" lon="2.10224">
        <ele>1532.79</ele>
        <time>2011-06-05T08:42:22Z</time>
      </trkpt>
      <trkpt lat="42.61224" lon="2.10214">
        <ele>1532.396</ele>
        <time>2011-06-05T08:42:23Z</time>
      </trkpt>
      <trkpt lat="42.61244" lon="2.10165">
        <ele>1530.606</ele>
        <time>2011-06-05T08:42:28Z</time>
      </trkpt>
      <trkpt lat="42.61283" lon="2.10106">
        <ele>1528.465</ele>
        <time>2011-06-05T08:42:35Z</time>
      </trkpt>
      <trkpt lat="42.61301" lon="2.10085">
        <ele>1527.698</ele>
        <time>2011-06-05T08:42:38Z</time>
      </trkpt>
      <trkpt lat="42.61316" lon="2.10055">
        <ele>1527.571</ele>
        <time>2011-06-05T08:42:42Z</time>
      </trkpt>
      <trkpt lat="42.61319" lon="2.10046">
        <ele>1527.499</ele>
        <time>2011-06-05T08:42:43Z</time>
      </trkpt>
      <trkpt lat="42.61332" lon="2.10013">
        <ele>1525.463</ele>
        <time>2011-06-05T08:42:47Z</time>
      </trkpt>
      <trkpt lat="42.61346" lon="2.10003">
        <ele>1523.839</ele>
        <time>2011-06-05T08:42:49Z</time>
      </trkpt>
      <trkpt lat="42.61378" lon="2.09992">
        <ele>1520.716</ele>
        <time>2011-06-05T08:42:54Z</time>
      </trkpt>
      <trkpt lat="42.61388" lon="2.0998">
        <ele>1520.69</ele>
        <time>2011-06-05T08:42:57Z</time>
      </trkpt>
      <trkpt lat="42.61404" lon="2.09981">
        <ele>1521.492</ele>
        <time>2011-06-05T08:43:01Z</time>
      </trkpt>
      <trkpt lat="42.61408" lon="2.09982">
        <ele>1521.875</ele>
        <time>2011-06-05T08:43:02Z</time>
      </trkpt>
      <trkpt lat="42.61433" lon="2.09997">
        <ele>1524.196</ele>
        <time>2011-06-05T08:43:09Z</time>
      </trkpt>
      <trkpt lat="42.61466" lon="2.1002">
        <ele>1526.015</ele>
        <time>2011-06-05T08:43:18Z</time>
      </trkpt>
      <trkpt lat="42.61496" lon="2.10039">
        <ele>1527.423</ele>
        <time>2011-06-05T08:43:26Z</time>
      </trkpt>
      <trkpt lat="42.61514" lon="2.10046">
        <ele>1528.485</ele>
        <time>2011-06-05T08:43:31Z</time>
      </trkpt>
    </trkseg>
  </trk>
</gpx>